<?xml version="1.0" encoding="UTF-8" standalone="no" ?>
<gpx xmlns="http://www.topografix.com/GPX/1/1" xmlns:xsi="http://www.w3.org/2001/XMLSchema-instance" xsi:schemaLocation="http://www.topografix.com/GPX/1/1 http://www.topografix.com/GPX/1/1/gpx.xsd" version="1.1" creator="VisuGPX - https://www.visugpx.com">
  <metadata>
    <name>Cabane de Cornudère - Pic de Paloumère - Fontaine de l\'Ours</name>
    <desc><![CDATA[Très belle rando bien ensoleillée en crête.
Pas de difficulté technique.
10 km pour 414 m de D .]]></desc>
  </metadata>
  <trk>
    <name><![CDATA[Cabane de Cornudère-Paloumère- Fontaine de l'Ours]]></name>
    <trkseg>
      <trkpt lat="42.95711" lon="0.88398">
        <ele>1487.78</ele>
        <time>2015-12-19T08:21:25Z</time>
      </trkpt>
      <trkpt lat="42.95715" lon="0.88412">
        <ele>1503.64</ele>
        <time>2015-12-19T08:22:18Z</time>
      </trkpt>
      <trkpt lat="42.95716" lon="0.88427">
        <ele>1501.24</ele>
        <time>2015-12-19T08:22:36Z</time>
      </trkpt>
      <trkpt lat="42.95717" lon="0.88439">
        <ele>1499.79</ele>
        <time>2015-12-19T08:22:49Z</time>
      </trkpt>
      <trkpt lat="42.95718" lon="0.88454">
        <ele>1498.35</ele>
        <time>2015-12-19T08:23:01Z</time>
      </trkpt>
      <trkpt lat="42.95717" lon="0.88469">
        <ele>1497.39</ele>
        <time>2015-12-19T08:23:12Z</time>
      </trkpt>
      <trkpt lat="42.95718" lon="0.88483">
        <ele>1494.99</ele>
        <time>2015-12-19T08:23:24Z</time>
      </trkpt>
      <trkpt lat="42.95716" lon="0.88496">
        <ele>1494.03</ele>
        <time>2015-12-19T08:23:36Z</time>
      </trkpt>
      <trkpt lat="42.95715" lon="0.8851">
        <ele>1493.55</ele>
        <time>2015-12-19T08:23:47Z</time>
      </trkpt>
      <trkpt lat="42.95717" lon="0.88523">
        <ele>1493.06</ele>
        <time>2015-12-19T08:23:58Z</time>
      </trkpt>
      <trkpt lat="42.95719" lon="0.88541">
        <ele>1492.1</ele>
        <time>2015-12-19T08:24:14Z</time>
      </trkpt>
      <trkpt lat="42.95721" lon="0.88575">
        <ele>1491.62</ele>
        <time>2015-12-19T08:24:46Z</time>
      </trkpt>
      <trkpt lat="42.95723" lon="0.886">
        <ele>1493.55</ele>
        <time>2015-12-19T08:25:06Z</time>
      </trkpt>
      <trkpt lat="42.95727" lon="0.88613">
        <ele>1495.47</ele>
        <time>2015-12-19T08:25:21Z</time>
      </trkpt>
      <trkpt lat="42.95734" lon="0.88627">
        <ele>1498.35</ele>
        <time>2015-12-19T08:25:40Z</time>
      </trkpt>
      <trkpt lat="42.95735" lon="0.88638">
        <ele>1498.35</ele>
        <time>2015-12-19T08:25:52Z</time>
      </trkpt>
      <trkpt lat="42.95738" lon="0.8865">
        <ele>1500.27</ele>
        <time>2015-12-19T08:26:06Z</time>
      </trkpt>
      <trkpt lat="42.95739" lon="0.88663">
        <ele>1503.16</ele>
        <time>2015-12-19T08:26:22Z</time>
      </trkpt>
      <trkpt lat="42.95744" lon="0.88673">
        <ele>1505.56</ele>
        <time>2015-12-19T08:26:39Z</time>
      </trkpt>
      <trkpt lat="42.95744" lon="0.88686">
        <ele>1507.48</ele>
        <time>2015-12-19T08:26:57Z</time>
      </trkpt>
      <trkpt lat="42.95751" lon="0.88695">
        <ele>1510.85</ele>
        <time>2015-12-19T08:27:19Z</time>
      </trkpt>
      <trkpt lat="42.95756" lon="0.88707">
        <ele>1514.21</ele>
        <time>2015-12-19T08:27:39Z</time>
      </trkpt>
      <trkpt lat="42.95758" lon="0.8872">
        <ele>1517.1</ele>
        <time>2015-12-19T08:27:57Z</time>
      </trkpt>
      <trkpt lat="42.95763" lon="0.88729">
        <ele>1519.98</ele>
        <time>2015-12-19T08:28:14Z</time>
      </trkpt>
      <trkpt lat="42.95765" lon="0.88741">
        <ele>1523.83</ele>
        <time>2015-12-19T08:28:32Z</time>
      </trkpt>
      <trkpt lat="42.95769" lon="0.8875">
        <ele>1526.71</ele>
        <time>2015-12-19T08:28:58Z</time>
      </trkpt>
      <trkpt lat="42.95772" lon="0.88762">
        <ele>1530.56</ele>
        <time>2015-12-19T08:29:20Z</time>
      </trkpt>
      <trkpt lat="42.95777" lon="0.88774">
        <ele>1534.4</ele>
        <time>2015-12-19T08:29:46Z</time>
      </trkpt>
      <trkpt lat="42.95781" lon="0.88783">
        <ele>1537.29</ele>
        <time>2015-12-19T08:30:04Z</time>
      </trkpt>
      <trkpt lat="42.95789" lon="0.88789">
        <ele>1539.21</ele>
        <time>2015-12-19T08:30:19Z</time>
      </trkpt>
      <trkpt lat="42.95788" lon="0.88805">
        <ele>1542.09</ele>
        <time>2015-12-19T08:30:35Z</time>
      </trkpt>
      <trkpt lat="42.95786" lon="0.88817">
        <ele>1543.53</ele>
        <time>2015-12-19T08:30:48Z</time>
      </trkpt>
      <trkpt lat="42.95791" lon="0.88828">
        <ele>1546.42</ele>
        <time>2015-12-19T08:31:04Z</time>
      </trkpt>
      <trkpt lat="42.95799" lon="0.88836">
        <ele>1548.82</ele>
        <time>2015-12-19T08:31:20Z</time>
      </trkpt>
      <trkpt lat="42.95804" lon="0.88846">
        <ele>1550.26</ele>
        <time>2015-12-19T08:31:34Z</time>
      </trkpt>
      <trkpt lat="42.95809" lon="0.88858">
        <ele>1552.19</ele>
        <time>2015-12-19T08:31:47Z</time>
      </trkpt>
      <trkpt lat="42.95812" lon="0.88869">
        <ele>1553.15</ele>
        <time>2015-12-19T08:31:59Z</time>
      </trkpt>
      <trkpt lat="42.95814" lon="0.88881">
        <ele>1555.55</ele>
        <time>2015-12-19T08:32:12Z</time>
      </trkpt>
      <trkpt lat="42.95818" lon="0.88893">
        <ele>1556.99</ele>
        <time>2015-12-19T08:32:26Z</time>
      </trkpt>
      <trkpt lat="42.95824" lon="0.88902">
        <ele>1556.99</ele>
        <time>2015-12-19T08:32:36Z</time>
      </trkpt>
      <trkpt lat="42.95829" lon="0.88914">
        <ele>1556.51</ele>
        <time>2015-12-19T08:32:48Z</time>
      </trkpt>
      <trkpt lat="42.9583" lon="0.88925">
        <ele>1556.03</ele>
        <time>2015-12-19T08:33:00Z</time>
      </trkpt>
      <trkpt lat="42.95826" lon="0.88937">
        <ele>1556.51</ele>
        <time>2015-12-19T08:33:12Z</time>
      </trkpt>
      <trkpt lat="42.95823" lon="0.88949">
        <ele>1556.99</ele>
        <time>2015-12-19T08:33:23Z</time>
      </trkpt>
      <trkpt lat="42.95821" lon="0.88963">
        <ele>1557.95</ele>
        <time>2015-12-19T08:33:35Z</time>
      </trkpt>
      <trkpt lat="42.95819" lon="0.88976">
        <ele>1559.4</ele>
        <time>2015-12-19T08:33:48Z</time>
      </trkpt>
      <trkpt lat="42.95818" lon="0.88989">
        <ele>1562.28</ele>
        <time>2015-12-19T08:34:01Z</time>
      </trkpt>
      <trkpt lat="42.9582" lon="0.89001">
        <ele>1563.72</ele>
        <time>2015-12-19T08:34:14Z</time>
      </trkpt>
      <trkpt lat="42.95817" lon="0.89013">
        <ele>1564.2</ele>
        <time>2015-12-19T08:34:26Z</time>
      </trkpt>
      <trkpt lat="42.95814" lon="0.89025">
        <ele>1565.64</ele>
        <time>2015-12-19T08:34:37Z</time>
      </trkpt>
      <trkpt lat="42.95809" lon="0.89037">
        <ele>1565.16</ele>
        <time>2015-12-19T08:34:52Z</time>
      </trkpt>
      <trkpt lat="42.95807" lon="0.89049">
        <ele>1563.24</ele>
        <time>2015-12-19T08:35:04Z</time>
      </trkpt>
      <trkpt lat="42.95802" lon="0.89059">
        <ele>1563.24</ele>
        <time>2015-12-19T08:35:14Z</time>
      </trkpt>
      <trkpt lat="42.958" lon="0.89071">
        <ele>1562.28</ele>
        <time>2015-12-19T08:35:24Z</time>
      </trkpt>
      <trkpt lat="42.95797" lon="0.89083">
        <ele>1563.24</ele>
        <time>2015-12-19T08:35:45Z</time>
      </trkpt>
      <trkpt lat="42.95788" lon="0.89079">
        <ele>1562.76</ele>
        <time>2015-12-19T08:35:58Z</time>
      </trkpt>
      <trkpt lat="42.95778" lon="0.89082">
        <ele>1562.28</ele>
        <time>2015-12-19T08:36:11Z</time>
      </trkpt>
      <trkpt lat="42.95769" lon="0.89086">
        <ele>1563.24</ele>
        <time>2015-12-19T08:36:54Z</time>
      </trkpt>
      <trkpt lat="42.95775" lon="0.89085">
        <ele>1561.8</ele>
        <time>2015-12-19T08:37:19Z</time>
      </trkpt>
      <trkpt lat="42.95773" lon="0.89071">
        <ele>1562.28</ele>
        <time>2015-12-19T08:37:33Z</time>
      </trkpt>
      <trkpt lat="42.95769" lon="0.89061">
        <ele>1562.28</ele>
        <time>2015-12-19T08:37:51Z</time>
      </trkpt>
      <trkpt lat="42.95764" lon="0.89051">
        <ele>1562.28</ele>
        <time>2015-12-19T08:38:04Z</time>
      </trkpt>
      <trkpt lat="42.95762" lon="0.89039">
        <ele>1563.24</ele>
        <time>2015-12-19T08:38:18Z</time>
      </trkpt>
      <trkpt lat="42.95759" lon="0.89027">
        <ele>1561.8</ele>
        <time>2015-12-19T08:38:31Z</time>
      </trkpt>
      <trkpt lat="42.9576" lon="0.89014">
        <ele>1559.88</ele>
        <time>2015-12-19T08:38:45Z</time>
      </trkpt>
      <trkpt lat="42.95764" lon="0.89002">
        <ele>1558.92</ele>
        <time>2015-12-19T08:39:12Z</time>
      </trkpt>
      <trkpt lat="42.95767" lon="0.88991">
        <ele>1556.99</ele>
        <time>2015-12-19T08:39:40Z</time>
      </trkpt>
      <trkpt lat="42.95768" lon="0.88978">
        <ele>1555.55</ele>
        <time>2015-12-19T08:39:52Z</time>
      </trkpt>
      <trkpt lat="42.95766" lon="0.88966">
        <ele>1554.59</ele>
        <time>2015-12-19T08:40:07Z</time>
      </trkpt>
      <trkpt lat="42.95764" lon="0.88952">
        <ele>1553.63</ele>
        <time>2015-12-19T08:40:23Z</time>
      </trkpt>
      <trkpt lat="42.95764" lon="0.88941">
        <ele>1551.71</ele>
        <time>2015-12-19T08:40:37Z</time>
      </trkpt>
      <trkpt lat="42.9577" lon="0.88931">
        <ele>1549.78</ele>
        <time>2015-12-19T08:40:51Z</time>
      </trkpt>
      <trkpt lat="42.95778" lon="0.88923">
        <ele>1548.34</ele>
        <time>2015-12-19T08:41:09Z</time>
      </trkpt>
      <trkpt lat="42.95789" lon="0.88913">
        <ele>1545.94</ele>
        <time>2015-12-19T08:41:22Z</time>
      </trkpt>
      <trkpt lat="42.95792" lon="0.88901">
        <ele>1544.5</ele>
        <time>2015-12-19T08:41:33Z</time>
      </trkpt>
      <trkpt lat="42.9579" lon="0.88888">
        <ele>1545.94</ele>
        <time>2015-12-19T08:41:47Z</time>
      </trkpt>
      <trkpt lat="42.9579" lon="0.88874">
        <ele>1548.82</ele>
        <time>2015-12-19T08:42:05Z</time>
      </trkpt>
      <trkpt lat="42.95788" lon="0.88863">
        <ele>1548.34</ele>
        <time>2015-12-19T08:42:19Z</time>
      </trkpt>
      <trkpt lat="42.95787" lon="0.88851">
        <ele>1546.42</ele>
        <time>2015-12-19T08:42:34Z</time>
      </trkpt>
      <trkpt lat="42.95785" lon="0.88839">
        <ele>1544.98</ele>
        <time>2015-12-19T08:42:49Z</time>
      </trkpt>
      <trkpt lat="42.95785" lon="0.88826">
        <ele>1543.05</ele>
        <time>2015-12-19T08:43:03Z</time>
      </trkpt>
      <trkpt lat="42.95781" lon="0.88815">
        <ele>1540.65</ele>
        <time>2015-12-19T08:43:16Z</time>
      </trkpt>
      <trkpt lat="42.95778" lon="0.88803">
        <ele>1537.29</ele>
        <time>2015-12-19T08:43:32Z</time>
      </trkpt>
      <trkpt lat="42.95779" lon="0.8879">
        <ele>1535.84</ele>
        <time>2015-12-19T08:43:45Z</time>
      </trkpt>
      <trkpt lat="42.95778" lon="0.88778">
        <ele>1532.96</ele>
        <time>2015-12-19T08:44:01Z</time>
      </trkpt>
      <trkpt lat="42.95775" lon="0.88766">
        <ele>1530.08</ele>
        <time>2015-12-19T08:44:26Z</time>
      </trkpt>
      <trkpt lat="42.95772" lon="0.88755">
        <ele>1526.23</ele>
        <time>2015-12-19T08:44:40Z</time>
      </trkpt>
      <trkpt lat="42.95768" lon="0.88745">
        <ele>1522.39</ele>
        <time>2015-12-19T08:44:55Z</time>
      </trkpt>
      <trkpt lat="42.95768" lon="0.88733">
        <ele>1519.5</ele>
        <time>2015-12-19T08:45:10Z</time>
      </trkpt>
      <trkpt lat="42.95764" lon="0.8872">
        <ele>1516.62</ele>
        <time>2015-12-19T08:45:35Z</time>
      </trkpt>
      <trkpt lat="42.95761" lon="0.88709">
        <ele>1513.25</ele>
        <time>2015-12-19T08:45:47Z</time>
      </trkpt>
      <trkpt lat="42.95758" lon="0.88698">
        <ele>1509.89</ele>
        <time>2015-12-19T08:45:58Z</time>
      </trkpt>
      <trkpt lat="42.9576" lon="0.88686">
        <ele>1507.97</ele>
        <time>2015-12-19T08:46:08Z</time>
      </trkpt>
      <trkpt lat="42.95755" lon="0.88674">
        <ele>1505.08</ele>
        <time>2015-12-19T08:46:20Z</time>
      </trkpt>
      <trkpt lat="42.95751" lon="0.88662">
        <ele>1502.2</ele>
        <time>2015-12-19T08:46:33Z</time>
      </trkpt>
      <trkpt lat="42.95747" lon="0.88651">
        <ele>1500.27</ele>
        <time>2015-12-19T08:46:44Z</time>
      </trkpt>
      <trkpt lat="42.95749" lon="0.88638">
        <ele>1498.35</ele>
        <time>2015-12-19T08:46:56Z</time>
      </trkpt>
      <trkpt lat="42.95745" lon="0.88624">
        <ele>1496.43</ele>
        <time>2015-12-19T08:47:07Z</time>
      </trkpt>
      <trkpt lat="42.9574" lon="0.88611">
        <ele>1493.55</ele>
        <time>2015-12-19T08:47:19Z</time>
      </trkpt>
      <trkpt lat="42.95736" lon="0.88597">
        <ele>1492.58</ele>
        <time>2015-12-19T08:47:32Z</time>
      </trkpt>
      <trkpt lat="42.95726" lon="0.88587">
        <ele>1489.22</ele>
        <time>2015-12-19T08:47:50Z</time>
      </trkpt>
      <trkpt lat="42.95725" lon="0.8857">
        <ele>1488.74</ele>
        <time>2015-12-19T08:48:03Z</time>
      </trkpt>
      <trkpt lat="42.95721" lon="0.88553">
        <ele>1488.26</ele>
        <time>2015-12-19T08:48:18Z</time>
      </trkpt>
      <trkpt lat="42.95718" lon="0.88538">
        <ele>1487.3</ele>
        <time>2015-12-19T08:48:32Z</time>
      </trkpt>
      <trkpt lat="42.95716" lon="0.88522">
        <ele>1487.78</ele>
        <time>2015-12-19T08:48:43Z</time>
      </trkpt>
      <trkpt lat="42.95716" lon="0.88507">
        <ele>1488.74</ele>
        <time>2015-12-19T08:48:53Z</time>
      </trkpt>
      <trkpt lat="42.95716" lon="0.88493">
        <ele>1489.22</ele>
        <time>2015-12-19T08:49:03Z</time>
      </trkpt>
      <trkpt lat="42.95721" lon="0.88483">
        <ele>1490.18</ele>
        <time>2015-12-19T08:49:14Z</time>
      </trkpt>
      <trkpt lat="42.9572" lon="0.8847">
        <ele>1491.62</ele>
        <time>2015-12-19T08:49:27Z</time>
      </trkpt>
      <trkpt lat="42.95718" lon="0.88452">
        <ele>1493.55</ele>
        <time>2015-12-19T08:49:41Z</time>
      </trkpt>
      <trkpt lat="42.95717" lon="0.88437">
        <ele>1494.51</ele>
        <time>2015-12-19T08:49:53Z</time>
      </trkpt>
      <trkpt lat="42.95715" lon="0.88422">
        <ele>1495.95</ele>
        <time>2015-12-19T08:50:10Z</time>
      </trkpt>
      <trkpt lat="42.95714" lon="0.8841">
        <ele>1497.39</ele>
        <time>2015-12-19T08:50:23Z</time>
      </trkpt>
      <trkpt lat="42.95715" lon="0.88402">
        <ele>1499.31</ele>
        <time>2015-12-19T08:50:45Z</time>
      </trkpt>
      <trkpt lat="42.95713" lon="0.88397">
        <ele>1498.83</ele>
        <time>2015-12-19T08:51:21Z</time>
      </trkpt>
      <trkpt lat="42.95716" lon="0.88398">
        <ele>1498.83</ele>
        <time>2015-12-19T08:54:31Z</time>
      </trkpt>
      <trkpt lat="42.95716" lon="0.88386">
        <ele>1498.83</ele>
        <time>2015-12-19T08:54:52Z</time>
      </trkpt>
      <trkpt lat="42.95722" lon="0.88376">
        <ele>1500.76</ele>
        <time>2015-12-19T08:55:11Z</time>
      </trkpt>
      <trkpt lat="42.95729" lon="0.8837">
        <ele>1502.68</ele>
        <time>2015-12-19T08:55:27Z</time>
      </trkpt>
      <trkpt lat="42.95725" lon="0.88358">
        <ele>1506.04</ele>
        <time>2015-12-19T08:55:47Z</time>
      </trkpt>
      <trkpt lat="42.95721" lon="0.88347">
        <ele>1508.45</ele>
        <time>2015-12-19T08:56:19Z</time>
      </trkpt>
      <trkpt lat="42.9572" lon="0.88333">
        <ele>1510.37</ele>
        <time>2015-12-19T08:56:37Z</time>
      </trkpt>
      <trkpt lat="42.95719" lon="0.8832">
        <ele>1513.73</ele>
        <time>2015-12-19T08:56:52Z</time>
      </trkpt>
      <trkpt lat="42.95719" lon="0.88308">
        <ele>1514.21</ele>
        <time>2015-12-19T08:57:07Z</time>
      </trkpt>
      <trkpt lat="42.95719" lon="0.88297">
        <ele>1516.14</ele>
        <time>2015-12-19T08:57:20Z</time>
      </trkpt>
      <trkpt lat="42.95721" lon="0.88285">
        <ele>1516.62</ele>
        <time>2015-12-19T08:57:34Z</time>
      </trkpt>
      <trkpt lat="42.95721" lon="0.88271">
        <ele>1519.02</ele>
        <time>2015-12-19T08:57:47Z</time>
      </trkpt>
      <trkpt lat="42.95727" lon="0.88262">
        <ele>1519.98</ele>
        <time>2015-12-19T08:58:08Z</time>
      </trkpt>
      <trkpt lat="42.95729" lon="0.8825">
        <ele>1520.94</ele>
        <time>2015-12-19T08:58:20Z</time>
      </trkpt>
      <trkpt lat="42.95731" lon="0.88238">
        <ele>1522.87</ele>
        <time>2015-12-19T08:58:31Z</time>
      </trkpt>
      <trkpt lat="42.95735" lon="0.88226">
        <ele>1523.83</ele>
        <time>2015-12-19T08:58:44Z</time>
      </trkpt>
      <trkpt lat="42.95734" lon="0.88212">
        <ele>1523.83</ele>
        <time>2015-12-19T08:58:55Z</time>
      </trkpt>
      <trkpt lat="42.95735" lon="0.882">
        <ele>1524.31</ele>
        <time>2015-12-19T08:59:05Z</time>
      </trkpt>
      <trkpt lat="42.95737" lon="0.88188">
        <ele>1523.83</ele>
        <time>2015-12-19T08:59:15Z</time>
      </trkpt>
      <trkpt lat="42.95734" lon="0.88175">
        <ele>1522.87</ele>
        <time>2015-12-19T08:59:25Z</time>
      </trkpt>
      <trkpt lat="42.95737" lon="0.88162">
        <ele>1523.83</ele>
        <time>2015-12-19T08:59:37Z</time>
      </trkpt>
      <trkpt lat="42.95736" lon="0.8815">
        <ele>1523.83</ele>
        <time>2015-12-19T08:59:47Z</time>
      </trkpt>
      <trkpt lat="42.95736" lon="0.88137">
        <ele>1524.79</ele>
        <time>2015-12-19T08:59:59Z</time>
      </trkpt>
      <trkpt lat="42.95741" lon="0.88125">
        <ele>1525.27</ele>
        <time>2015-12-19T09:00:11Z</time>
      </trkpt>
      <trkpt lat="42.95742" lon="0.88112">
        <ele>1526.23</ele>
        <time>2015-12-19T09:00:23Z</time>
      </trkpt>
      <trkpt lat="42.95744" lon="0.881">
        <ele>1527.19</ele>
        <time>2015-12-19T09:00:34Z</time>
      </trkpt>
      <trkpt lat="42.95747" lon="0.88088">
        <ele>1528.63</ele>
        <time>2015-12-19T09:00:46Z</time>
      </trkpt>
      <trkpt lat="42.95748" lon="0.88076">
        <ele>1530.56</ele>
        <time>2015-12-19T09:01:00Z</time>
      </trkpt>
      <trkpt lat="42.95752" lon="0.88064">
        <ele>1533.92</ele>
        <time>2015-12-19T09:01:21Z</time>
      </trkpt>
      <trkpt lat="42.95756" lon="0.88053">
        <ele>1536.8</ele>
        <time>2015-12-19T09:01:37Z</time>
      </trkpt>
      <trkpt lat="42.95759" lon="0.88042">
        <ele>1539.21</ele>
        <time>2015-12-19T09:01:59Z</time>
      </trkpt>
      <trkpt lat="42.95758" lon="0.88028">
        <ele>1539.69</ele>
        <time>2015-12-19T09:02:12Z</time>
      </trkpt>
      <trkpt lat="42.95762" lon="0.88015">
        <ele>1541.13</ele>
        <time>2015-12-19T09:02:25Z</time>
      </trkpt>
      <trkpt lat="42.9576" lon="0.88003">
        <ele>1541.13</ele>
        <time>2015-12-19T09:02:36Z</time>
      </trkpt>
      <trkpt lat="42.95761" lon="0.8799">
        <ele>1541.61</ele>
        <time>2015-12-19T09:02:47Z</time>
      </trkpt>
      <trkpt lat="42.95765" lon="0.87976">
        <ele>1543.05</ele>
        <time>2015-12-19T09:02:59Z</time>
      </trkpt>
      <trkpt lat="42.95764" lon="0.87964">
        <ele>1543.53</ele>
        <time>2015-12-19T09:03:10Z</time>
      </trkpt>
      <trkpt lat="42.95764" lon="0.8795">
        <ele>1544.5</ele>
        <time>2015-12-19T09:03:23Z</time>
      </trkpt>
      <trkpt lat="42.95767" lon="0.87936">
        <ele>1545.94</ele>
        <time>2015-12-19T09:03:37Z</time>
      </trkpt>
      <trkpt lat="42.95769" lon="0.87922">
        <ele>1547.38</ele>
        <time>2015-12-19T09:03:50Z</time>
      </trkpt>
      <trkpt lat="42.9577" lon="0.8791">
        <ele>1547.38</ele>
        <time>2015-12-19T09:04:01Z</time>
      </trkpt>
      <trkpt lat="42.95776" lon="0.879">
        <ele>1548.82</ele>
        <time>2015-12-19T09:04:12Z</time>
      </trkpt>
      <trkpt lat="42.95773" lon="0.87886">
        <ele>1548.82</ele>
        <time>2015-12-19T09:04:23Z</time>
      </trkpt>
      <trkpt lat="42.9577" lon="0.87873">
        <ele>1549.3</ele>
        <time>2015-12-19T09:04:35Z</time>
      </trkpt>
      <trkpt lat="42.95765" lon="0.87862">
        <ele>1552.67</ele>
        <time>2015-12-19T09:04:56Z</time>
      </trkpt>
      <trkpt lat="42.9576" lon="0.87852">
        <ele>1554.11</ele>
        <time>2015-12-19T09:05:10Z</time>
      </trkpt>
      <trkpt lat="42.95757" lon="0.87839">
        <ele>1556.99</ele>
        <time>2015-12-19T09:05:25Z</time>
      </trkpt>
      <trkpt lat="42.95757" lon="0.87826">
        <ele>1557.95</ele>
        <time>2015-12-19T09:05:42Z</time>
      </trkpt>
      <trkpt lat="42.95756" lon="0.87813">
        <ele>1558.43</ele>
        <time>2015-12-19T09:05:55Z</time>
      </trkpt>
      <trkpt lat="42.95762" lon="0.87804">
        <ele>1560.36</ele>
        <time>2015-12-19T09:06:09Z</time>
      </trkpt>
      <trkpt lat="42.95763" lon="0.87792">
        <ele>1561.32</ele>
        <time>2015-12-19T09:06:24Z</time>
      </trkpt>
      <trkpt lat="42.95765" lon="0.8778">
        <ele>1563.24</ele>
        <time>2015-12-19T09:06:38Z</time>
      </trkpt>
      <trkpt lat="42.95768" lon="0.87768">
        <ele>1563.72</ele>
        <time>2015-12-19T09:06:51Z</time>
      </trkpt>
      <trkpt lat="42.95773" lon="0.87757">
        <ele>1565.16</ele>
        <time>2015-12-19T09:07:04Z</time>
      </trkpt>
      <trkpt lat="42.95778" lon="0.87745">
        <ele>1567.09</ele>
        <time>2015-12-19T09:07:19Z</time>
      </trkpt>
      <trkpt lat="42.95781" lon="0.87733">
        <ele>1568.53</ele>
        <time>2015-12-19T09:07:35Z</time>
      </trkpt>
      <trkpt lat="42.95783" lon="0.8772">
        <ele>1568.53</ele>
        <time>2015-12-19T09:07:52Z</time>
      </trkpt>
      <trkpt lat="42.95788" lon="0.87708">
        <ele>1569.49</ele>
        <time>2015-12-19T09:08:03Z</time>
      </trkpt>
      <trkpt lat="42.95793" lon="0.87698">
        <ele>1569.01</ele>
        <time>2015-12-19T09:08:15Z</time>
      </trkpt>
      <trkpt lat="42.95796" lon="0.87688">
        <ele>1569.49</ele>
        <time>2015-12-19T09:08:26Z</time>
      </trkpt>
      <trkpt lat="42.95792" lon="0.87675">
        <ele>1570.45</ele>
        <time>2015-12-19T09:08:38Z</time>
      </trkpt>
      <trkpt lat="42.95789" lon="0.87663">
        <ele>1572.37</ele>
        <time>2015-12-19T09:08:50Z</time>
      </trkpt>
      <trkpt lat="42.95787" lon="0.87653">
        <ele>1573.82</ele>
        <time>2015-12-19T09:09:10Z</time>
      </trkpt>
      <trkpt lat="42.95786" lon="0.8764">
        <ele>1571.89</ele>
        <time>2015-12-19T09:09:25Z</time>
      </trkpt>
      <trkpt lat="42.95784" lon="0.87629">
        <ele>1569.49</ele>
        <time>2015-12-19T09:09:40Z</time>
      </trkpt>
      <trkpt lat="42.95785" lon="0.87617">
        <ele>1568.05</ele>
        <time>2015-12-19T09:09:51Z</time>
      </trkpt>
      <trkpt lat="42.95782" lon="0.87604">
        <ele>1566.61</ele>
        <time>2015-12-19T09:10:02Z</time>
      </trkpt>
      <trkpt lat="42.9578" lon="0.87591">
        <ele>1566.12</ele>
        <time>2015-12-19T09:10:12Z</time>
      </trkpt>
      <trkpt lat="42.95777" lon="0.87579">
        <ele>1565.16</ele>
        <time>2015-12-19T09:10:25Z</time>
      </trkpt>
      <trkpt lat="42.95772" lon="0.87567">
        <ele>1565.64</ele>
        <time>2015-12-19T09:10:36Z</time>
      </trkpt>
      <trkpt lat="42.95767" lon="0.87555">
        <ele>1564.68</ele>
        <time>2015-12-19T09:10:47Z</time>
      </trkpt>
      <trkpt lat="42.95764" lon="0.87544">
        <ele>1565.64</ele>
        <time>2015-12-19T09:10:59Z</time>
      </trkpt>
      <trkpt lat="42.9576" lon="0.87531">
        <ele>1566.61</ele>
        <time>2015-12-19T09:11:11Z</time>
      </trkpt>
      <trkpt lat="42.95756" lon="0.8752">
        <ele>1567.09</ele>
        <time>2015-12-19T09:11:23Z</time>
      </trkpt>
      <trkpt lat="42.95757" lon="0.87506">
        <ele>1568.53</ele>
        <time>2015-12-19T09:11:36Z</time>
      </trkpt>
      <trkpt lat="42.9576" lon="0.87493">
        <ele>1569.01</ele>
        <time>2015-12-19T09:11:48Z</time>
      </trkpt>
      <trkpt lat="42.95767" lon="0.87484">
        <ele>1568.53</ele>
        <time>2015-12-19T09:12:01Z</time>
      </trkpt>
      <trkpt lat="42.95775" lon="0.87475">
        <ele>1567.57</ele>
        <time>2015-12-19T09:12:13Z</time>
      </trkpt>
      <trkpt lat="42.9578" lon="0.87464">
        <ele>1566.12</ele>
        <time>2015-12-19T09:12:27Z</time>
      </trkpt>
      <trkpt lat="42.95782" lon="0.87452">
        <ele>1562.76</ele>
        <time>2015-12-19T09:12:42Z</time>
      </trkpt>
      <trkpt lat="42.95792" lon="0.87447">
        <ele>1559.88</ele>
        <time>2015-12-19T09:12:55Z</time>
      </trkpt>
      <trkpt lat="42.95792" lon="0.87436">
        <ele>1557.47</ele>
        <time>2015-12-19T09:13:06Z</time>
      </trkpt>
      <trkpt lat="42.95794" lon="0.87423">
        <ele>1555.55</ele>
        <time>2015-12-19T09:13:18Z</time>
      </trkpt>
      <trkpt lat="42.95798" lon="0.87412">
        <ele>1553.15</ele>
        <time>2015-12-19T09:13:30Z</time>
      </trkpt>
      <trkpt lat="42.95804" lon="0.87401">
        <ele>1550.74</ele>
        <time>2015-12-19T09:13:41Z</time>
      </trkpt>
      <trkpt lat="42.9581" lon="0.8739">
        <ele>1548.34</ele>
        <time>2015-12-19T09:13:52Z</time>
      </trkpt>
      <trkpt lat="42.95812" lon="0.8738">
        <ele>1546.42</ele>
        <time>2015-12-19T09:14:04Z</time>
      </trkpt>
      <trkpt lat="42.9581" lon="0.87365">
        <ele>1543.05</ele>
        <time>2015-12-19T09:14:18Z</time>
      </trkpt>
      <trkpt lat="42.95819" lon="0.87355">
        <ele>1540.65</ele>
        <time>2015-12-19T09:14:33Z</time>
      </trkpt>
      <trkpt lat="42.95814" lon="0.87343">
        <ele>1537.77</ele>
        <time>2015-12-19T09:14:46Z</time>
      </trkpt>
      <trkpt lat="42.95816" lon="0.87332">
        <ele>1534.88</ele>
        <time>2015-12-19T09:14:59Z</time>
      </trkpt>
      <trkpt lat="42.9582" lon="0.87318">
        <ele>1531.04</ele>
        <time>2015-12-19T09:15:18Z</time>
      </trkpt>
      <trkpt lat="42.95822" lon="0.87303">
        <ele>1527.67</ele>
        <time>2015-12-19T09:15:34Z</time>
      </trkpt>
      <trkpt lat="42.95822" lon="0.87274">
        <ele>1518.54</ele>
        <time>2015-12-19T09:16:15Z</time>
      </trkpt>
      <trkpt lat="42.95827" lon="0.87247">
        <ele>1510.85</ele>
        <time>2015-12-19T09:16:53Z</time>
      </trkpt>
      <trkpt lat="42.95843" lon="0.8722">
        <ele>1510.37</ele>
        <time>2015-12-19T09:17:39Z</time>
      </trkpt>
      <trkpt lat="42.9585" lon="0.872">
        <ele>1513.73</ele>
        <time>2015-12-19T09:18:07Z</time>
      </trkpt>
      <trkpt lat="42.95859" lon="0.87174">
        <ele>1516.62</ele>
        <time>2015-12-19T09:18:40Z</time>
      </trkpt>
      <trkpt lat="42.9587" lon="0.87152">
        <ele>1521.42</ele>
        <time>2015-12-19T09:19:19Z</time>
      </trkpt>
      <trkpt lat="42.95871" lon="0.87131">
        <ele>1521.42</ele>
        <time>2015-12-19T09:19:42Z</time>
      </trkpt>
      <trkpt lat="42.95876" lon="0.87114">
        <ele>1522.39</ele>
        <time>2015-12-19T09:20:01Z</time>
      </trkpt>
      <trkpt lat="42.95884" lon="0.87094">
        <ele>1521.42</ele>
        <time>2015-12-19T09:20:22Z</time>
      </trkpt>
      <trkpt lat="42.95897" lon="0.87072">
        <ele>1520.46</ele>
        <time>2015-12-19T09:20:59Z</time>
      </trkpt>
      <trkpt lat="42.95904" lon="0.87065">
        <ele>1524.79</ele>
        <time>2015-12-19T09:21:31Z</time>
      </trkpt>
      <trkpt lat="42.95901" lon="0.87051">
        <ele>1528.15</ele>
        <time>2015-12-19T09:22:09Z</time>
      </trkpt>
      <trkpt lat="42.95912" lon="0.87039">
        <ele>1533.92</ele>
        <time>2015-12-19T09:22:40Z</time>
      </trkpt>
      <trkpt lat="42.95918" lon="0.87029">
        <ele>1535.36</ele>
        <time>2015-12-19T09:22:55Z</time>
      </trkpt>
      <trkpt lat="42.9592" lon="0.87018">
        <ele>1537.29</ele>
        <time>2015-12-19T09:23:15Z</time>
      </trkpt>
      <trkpt lat="42.95922" lon="0.87005">
        <ele>1538.25</ele>
        <time>2015-12-19T09:23:41Z</time>
      </trkpt>
      <trkpt lat="42.95928" lon="0.86994">
        <ele>1538.73</ele>
        <time>2015-12-19T09:23:57Z</time>
      </trkpt>
      <trkpt lat="42.95937" lon="0.8699">
        <ele>1540.65</ele>
        <time>2015-12-19T09:24:10Z</time>
      </trkpt>
      <trkpt lat="42.95946" lon="0.86988">
        <ele>1542.09</ele>
        <time>2015-12-19T09:24:23Z</time>
      </trkpt>
      <trkpt lat="42.95954" lon="0.8698">
        <ele>1542.09</ele>
        <time>2015-12-19T09:24:35Z</time>
      </trkpt>
      <trkpt lat="42.95956" lon="0.86968">
        <ele>1541.13</ele>
        <time>2015-12-19T09:24:46Z</time>
      </trkpt>
      <trkpt lat="42.95958" lon="0.86955">
        <ele>1540.65</ele>
        <time>2015-12-19T09:24:57Z</time>
      </trkpt>
      <trkpt lat="42.95957" lon="0.86944">
        <ele>1541.13</ele>
        <time>2015-12-19T09:25:06Z</time>
      </trkpt>
      <trkpt lat="42.95955" lon="0.86932">
        <ele>1541.61</ele>
        <time>2015-12-19T09:25:16Z</time>
      </trkpt>
      <trkpt lat="42.95956" lon="0.86919">
        <ele>1542.57</ele>
        <time>2015-12-19T09:25:26Z</time>
      </trkpt>
      <trkpt lat="42.95954" lon="0.86907">
        <ele>1542.09</ele>
        <time>2015-12-19T09:25:37Z</time>
      </trkpt>
      <trkpt lat="42.95952" lon="0.86895">
        <ele>1542.57</ele>
        <time>2015-12-19T09:25:48Z</time>
      </trkpt>
      <trkpt lat="42.95951" lon="0.86881">
        <ele>1543.05</ele>
        <time>2015-12-19T09:25:59Z</time>
      </trkpt>
      <trkpt lat="42.9595" lon="0.8687">
        <ele>1543.53</ele>
        <time>2015-12-19T09:26:10Z</time>
      </trkpt>
      <trkpt lat="42.95946" lon="0.86857">
        <ele>1544.01</ele>
        <time>2015-12-19T09:26:21Z</time>
      </trkpt>
      <trkpt lat="42.95943" lon="0.86845">
        <ele>1544.98</ele>
        <time>2015-12-19T09:26:31Z</time>
      </trkpt>
      <trkpt lat="42.9594" lon="0.86831">
        <ele>1544.98</ele>
        <time>2015-12-19T09:26:42Z</time>
      </trkpt>
      <trkpt lat="42.9594" lon="0.86819">
        <ele>1546.9</ele>
        <time>2015-12-19T09:26:55Z</time>
      </trkpt>
      <trkpt lat="42.95938" lon="0.86806">
        <ele>1548.82</ele>
        <time>2015-12-19T09:27:09Z</time>
      </trkpt>
      <trkpt lat="42.95935" lon="0.86795">
        <ele>1549.78</ele>
        <time>2015-12-19T09:27:21Z</time>
      </trkpt>
      <trkpt lat="42.95932" lon="0.86783">
        <ele>1551.22</ele>
        <time>2015-12-19T09:27:32Z</time>
      </trkpt>
      <trkpt lat="42.95929" lon="0.86772">
        <ele>1551.71</ele>
        <time>2015-12-19T09:27:43Z</time>
      </trkpt>
      <trkpt lat="42.95926" lon="0.8676">
        <ele>1551.71</ele>
        <time>2015-12-19T09:27:53Z</time>
      </trkpt>
      <trkpt lat="42.95927" lon="0.86749">
        <ele>1552.19</ele>
        <time>2015-12-19T09:28:03Z</time>
      </trkpt>
      <trkpt lat="42.95926" lon="0.86737">
        <ele>1552.67</ele>
        <time>2015-12-19T09:28:12Z</time>
      </trkpt>
      <trkpt lat="42.95924" lon="0.86726">
        <ele>1552.67</ele>
        <time>2015-12-19T09:28:24Z</time>
      </trkpt>
      <trkpt lat="42.95921" lon="0.86714">
        <ele>1553.15</ele>
        <time>2015-12-19T09:28:37Z</time>
      </trkpt>
      <trkpt lat="42.95918" lon="0.867">
        <ele>1554.11</ele>
        <time>2015-12-19T09:28:49Z</time>
      </trkpt>
      <trkpt lat="42.95916" lon="0.86685">
        <ele>1554.11</ele>
        <time>2015-12-19T09:29:00Z</time>
      </trkpt>
      <trkpt lat="42.95912" lon="0.86671">
        <ele>1554.59</ele>
        <time>2015-12-19T09:29:11Z</time>
      </trkpt>
      <trkpt lat="42.95907" lon="0.86658">
        <ele>1555.55</ele>
        <time>2015-12-19T09:29:23Z</time>
      </trkpt>
      <trkpt lat="42.95904" lon="0.86647">
        <ele>1556.99</ele>
        <time>2015-12-19T09:29:33Z</time>
      </trkpt>
      <trkpt lat="42.95901" lon="0.86636">
        <ele>1556.99</ele>
        <time>2015-12-19T09:29:43Z</time>
      </trkpt>
      <trkpt lat="42.95897" lon="0.86624">
        <ele>1557.95</ele>
        <time>2015-12-19T09:29:54Z</time>
      </trkpt>
      <trkpt lat="42.95891" lon="0.86613">
        <ele>1558.43</ele>
        <time>2015-12-19T09:30:04Z</time>
      </trkpt>
      <trkpt lat="42.95884" lon="0.86603">
        <ele>1560.36</ele>
        <time>2015-12-19T09:30:16Z</time>
      </trkpt>
      <trkpt lat="42.95881" lon="0.86591">
        <ele>1561.32</ele>
        <time>2015-12-19T09:30:29Z</time>
      </trkpt>
      <trkpt lat="42.95879" lon="0.8658">
        <ele>1563.72</ele>
        <time>2015-12-19T09:30:41Z</time>
      </trkpt>
      <trkpt lat="42.95875" lon="0.86569">
        <ele>1565.16</ele>
        <time>2015-12-19T09:30:56Z</time>
      </trkpt>
      <trkpt lat="42.9587" lon="0.86558">
        <ele>1567.09</ele>
        <time>2015-12-19T09:31:16Z</time>
      </trkpt>
      <trkpt lat="42.95865" lon="0.86548">
        <ele>1569.01</ele>
        <time>2015-12-19T09:31:29Z</time>
      </trkpt>
      <trkpt lat="42.95861" lon="0.86536">
        <ele>1569.97</ele>
        <time>2015-12-19T09:31:41Z</time>
      </trkpt>
      <trkpt lat="42.95856" lon="0.86525">
        <ele>1570.93</ele>
        <time>2015-12-19T09:31:52Z</time>
      </trkpt>
      <trkpt lat="42.95854" lon="0.86514">
        <ele>1570.93</ele>
        <time>2015-12-19T09:32:06Z</time>
      </trkpt>
      <trkpt lat="42.95852" lon="0.86501">
        <ele>1571.89</ele>
        <time>2015-12-19T09:32:18Z</time>
      </trkpt>
      <trkpt lat="42.95848" lon="0.86489">
        <ele>1572.37</ele>
        <time>2015-12-19T09:32:29Z</time>
      </trkpt>
      <trkpt lat="42.95848" lon="0.86477">
        <ele>1572.37</ele>
        <time>2015-12-19T09:32:39Z</time>
      </trkpt>
      <trkpt lat="42.95846" lon="0.86465">
        <ele>1571.89</ele>
        <time>2015-12-19T09:32:49Z</time>
      </trkpt>
      <trkpt lat="42.95845" lon="0.86452">
        <ele>1571.41</ele>
        <time>2015-12-19T09:32:58Z</time>
      </trkpt>
      <trkpt lat="42.95842" lon="0.8644">
        <ele>1571.41</ele>
        <time>2015-12-19T09:33:08Z</time>
      </trkpt>
      <trkpt lat="42.95839" lon="0.86429">
        <ele>1570.45</ele>
        <time>2015-12-19T09:33:19Z</time>
      </trkpt>
      <trkpt lat="42.95836" lon="0.86418">
        <ele>1570.93</ele>
        <time>2015-12-19T09:33:29Z</time>
      </trkpt>
      <trkpt lat="42.95833" lon="0.86406">
        <ele>1570.45</ele>
        <time>2015-12-19T09:33:39Z</time>
      </trkpt>
      <trkpt lat="42.95829" lon="0.86394">
        <ele>1570.93</ele>
        <time>2015-12-19T09:33:52Z</time>
      </trkpt>
      <trkpt lat="42.95827" lon="0.86383">
        <ele>1570.45</ele>
        <time>2015-12-19T09:34:05Z</time>
      </trkpt>
      <trkpt lat="42.95827" lon="0.8637">
        <ele>1570.45</ele>
        <time>2015-12-19T09:34:15Z</time>
      </trkpt>
      <trkpt lat="42.95826" lon="0.86356">
        <ele>1569.49</ele>
        <time>2015-12-19T09:34:25Z</time>
      </trkpt>
      <trkpt lat="42.95826" lon="0.86344">
        <ele>1568.53</ele>
        <time>2015-12-19T09:34:34Z</time>
      </trkpt>
      <trkpt lat="42.95824" lon="0.86331">
        <ele>1567.57</ele>
        <time>2015-12-19T09:34:48Z</time>
      </trkpt>
      <trkpt lat="42.95821" lon="0.8632">
        <ele>1567.57</ele>
        <time>2015-12-19T09:34:58Z</time>
      </trkpt>
      <trkpt lat="42.9582" lon="0.86307">
        <ele>1568.05</ele>
        <time>2015-12-19T09:35:08Z</time>
      </trkpt>
      <trkpt lat="42.9582" lon="0.86293">
        <ele>1567.57</ele>
        <time>2015-12-19T09:35:18Z</time>
      </trkpt>
      <trkpt lat="42.95818" lon="0.86281">
        <ele>1567.57</ele>
        <time>2015-12-19T09:35:27Z</time>
      </trkpt>
      <trkpt lat="42.95815" lon="0.86269">
        <ele>1568.05</ele>
        <time>2015-12-19T09:35:37Z</time>
      </trkpt>
      <trkpt lat="42.95811" lon="0.86257">
        <ele>1569.49</ele>
        <time>2015-12-19T09:35:46Z</time>
      </trkpt>
      <trkpt lat="42.95809" lon="0.86246">
        <ele>1569.49</ele>
        <time>2015-12-19T09:35:56Z</time>
      </trkpt>
      <trkpt lat="42.95812" lon="0.86232">
        <ele>1569.49</ele>
        <time>2015-12-19T09:36:08Z</time>
      </trkpt>
      <trkpt lat="42.9581" lon="0.8622">
        <ele>1569.01</ele>
        <time>2015-12-19T09:36:19Z</time>
      </trkpt>
      <trkpt lat="42.95807" lon="0.86208">
        <ele>1567.57</ele>
        <time>2015-12-19T09:36:32Z</time>
      </trkpt>
      <trkpt lat="42.95809" lon="0.86196">
        <ele>1565.64</ele>
        <time>2015-12-19T09:36:43Z</time>
      </trkpt>
      <trkpt lat="42.95809" lon="0.86183">
        <ele>1565.64</ele>
        <time>2015-12-19T09:36:53Z</time>
      </trkpt>
      <trkpt lat="42.95807" lon="0.86169">
        <ele>1566.61</ele>
        <time>2015-12-19T09:37:05Z</time>
      </trkpt>
      <trkpt lat="42.95806" lon="0.86157">
        <ele>1567.57</ele>
        <time>2015-12-19T09:37:16Z</time>
      </trkpt>
      <trkpt lat="42.95804" lon="0.86145">
        <ele>1568.05</ele>
        <time>2015-12-19T09:37:26Z</time>
      </trkpt>
      <trkpt lat="42.95802" lon="0.86133">
        <ele>1568.53</ele>
        <time>2015-12-19T09:37:36Z</time>
      </trkpt>
      <trkpt lat="42.95797" lon="0.86121">
        <ele>1567.57</ele>
        <time>2015-12-19T09:37:46Z</time>
      </trkpt>
      <trkpt lat="42.95793" lon="0.8611">
        <ele>1567.09</ele>
        <time>2015-12-19T09:37:56Z</time>
      </trkpt>
      <trkpt lat="42.9579" lon="0.86098">
        <ele>1567.09</ele>
        <time>2015-12-19T09:38:06Z</time>
      </trkpt>
      <trkpt lat="42.9579" lon="0.86087">
        <ele>1567.57</ele>
        <time>2015-12-19T09:38:17Z</time>
      </trkpt>
      <trkpt lat="42.95788" lon="0.86076">
        <ele>1567.09</ele>
        <time>2015-12-19T09:38:28Z</time>
      </trkpt>
      <trkpt lat="42.95786" lon="0.86063">
        <ele>1566.12</ele>
        <time>2015-12-19T09:38:40Z</time>
      </trkpt>
      <trkpt lat="42.95782" lon="0.86051">
        <ele>1564.68</ele>
        <time>2015-12-19T09:38:51Z</time>
      </trkpt>
      <trkpt lat="42.95779" lon="0.8604">
        <ele>1563.72</ele>
        <time>2015-12-19T09:39:02Z</time>
      </trkpt>
      <trkpt lat="42.95778" lon="0.86029">
        <ele>1561.8</ele>
        <time>2015-12-19T09:39:14Z</time>
      </trkpt>
      <trkpt lat="42.95774" lon="0.8602">
        <ele>1560.84</ele>
        <time>2015-12-19T09:39:26Z</time>
      </trkpt>
      <trkpt lat="42.95773" lon="0.86008">
        <ele>1558.43</ele>
        <time>2015-12-19T09:39:41Z</time>
      </trkpt>
      <trkpt lat="42.95774" lon="0.85996">
        <ele>1555.55</ele>
        <time>2015-12-19T09:40:24Z</time>
      </trkpt>
      <trkpt lat="42.95766" lon="0.85987">
        <ele>1554.11</ele>
        <time>2015-12-19T09:40:36Z</time>
      </trkpt>
      <trkpt lat="42.9576" lon="0.85977">
        <ele>1551.71</ele>
        <time>2015-12-19T09:40:49Z</time>
      </trkpt>
      <trkpt lat="42.95759" lon="0.85964">
        <ele>1549.78</ele>
        <time>2015-12-19T09:41:00Z</time>
      </trkpt>
      <trkpt lat="42.95758" lon="0.85953">
        <ele>1546.9</ele>
        <time>2015-12-19T09:41:13Z</time>
      </trkpt>
      <trkpt lat="42.95755" lon="0.85942">
        <ele>1544.5</ele>
        <time>2015-12-19T09:41:26Z</time>
      </trkpt>
      <trkpt lat="42.95749" lon="0.85932">
        <ele>1542.09</ele>
        <time>2015-12-19T09:41:40Z</time>
      </trkpt>
      <trkpt lat="42.95743" lon="0.85923">
        <ele>1538.73</ele>
        <time>2015-12-19T09:41:54Z</time>
      </trkpt>
      <trkpt lat="42.9574" lon="0.85914">
        <ele>1535.36</ele>
        <time>2015-12-19T09:42:07Z</time>
      </trkpt>
      <trkpt lat="42.95734" lon="0.85906">
        <ele>1533.44</ele>
        <time>2015-12-19T09:42:18Z</time>
      </trkpt>
      <trkpt lat="42.95729" lon="0.85893">
        <ele>1532</ele>
        <time>2015-12-19T09:42:39Z</time>
      </trkpt>
      <trkpt lat="42.95724" lon="0.85883">
        <ele>1527.67</ele>
        <time>2015-12-19T09:42:56Z</time>
      </trkpt>
      <trkpt lat="42.9572" lon="0.85873">
        <ele>1524.79</ele>
        <time>2015-12-19T09:43:11Z</time>
      </trkpt>
      <trkpt lat="42.95714" lon="0.85865">
        <ele>1523.35</ele>
        <time>2015-12-19T09:43:22Z</time>
      </trkpt>
      <trkpt lat="42.95708" lon="0.85855">
        <ele>1522.39</ele>
        <time>2015-12-19T09:43:32Z</time>
      </trkpt>
      <trkpt lat="42.95704" lon="0.85844">
        <ele>1519.02</ele>
        <time>2015-12-19T09:43:46Z</time>
      </trkpt>
      <trkpt lat="42.95698" lon="0.85834">
        <ele>1516.62</ele>
        <time>2015-12-19T09:43:57Z</time>
      </trkpt>
      <trkpt lat="42.95696" lon="0.85823">
        <ele>1514.69</ele>
        <time>2015-12-19T09:44:08Z</time>
      </trkpt>
      <trkpt lat="42.95696" lon="0.85811">
        <ele>1513.25</ele>
        <time>2015-12-19T09:44:19Z</time>
      </trkpt>
      <trkpt lat="42.95692" lon="0.85801">
        <ele>1512.29</ele>
        <time>2015-12-19T09:44:29Z</time>
      </trkpt>
      <trkpt lat="42.95689" lon="0.8579">
        <ele>1510.37</ele>
        <time>2015-12-19T09:44:40Z</time>
      </trkpt>
      <trkpt lat="42.95686" lon="0.85781">
        <ele>1508.45</ele>
        <time>2015-12-19T09:44:50Z</time>
      </trkpt>
      <trkpt lat="42.95682" lon="0.85769">
        <ele>1507.97</ele>
        <time>2015-12-19T09:45:03Z</time>
      </trkpt>
      <trkpt lat="42.95677" lon="0.85758">
        <ele>1507</ele>
        <time>2015-12-19T09:45:14Z</time>
      </trkpt>
      <trkpt lat="42.95673" lon="0.85748">
        <ele>1506.52</ele>
        <time>2015-12-19T09:45:23Z</time>
      </trkpt>
      <trkpt lat="42.95667" lon="0.85737">
        <ele>1504.6</ele>
        <time>2015-12-19T09:45:34Z</time>
      </trkpt>
      <trkpt lat="42.95661" lon="0.85727">
        <ele>1503.16</ele>
        <time>2015-12-19T09:45:52Z</time>
      </trkpt>
      <trkpt lat="42.95653" lon="0.85719">
        <ele>1502.2</ele>
        <time>2015-12-19T09:46:02Z</time>
      </trkpt>
      <trkpt lat="42.95644" lon="0.85714">
        <ele>1500.27</ele>
        <time>2015-12-19T09:46:16Z</time>
      </trkpt>
      <trkpt lat="42.95637" lon="0.85705">
        <ele>1499.79</ele>
        <time>2015-12-19T09:46:27Z</time>
      </trkpt>
      <trkpt lat="42.95634" lon="0.85695">
        <ele>1499.79</ele>
        <time>2015-12-19T09:46:38Z</time>
      </trkpt>
      <trkpt lat="42.95631" lon="0.85685">
        <ele>1500.27</ele>
        <time>2015-12-19T09:47:15Z</time>
      </trkpt>
      <trkpt lat="42.95629" lon="0.85672">
        <ele>1501.24</ele>
        <time>2015-12-19T09:47:26Z</time>
      </trkpt>
      <trkpt lat="42.95627" lon="0.85661">
        <ele>1502.68</ele>
        <time>2015-12-19T09:47:38Z</time>
      </trkpt>
      <trkpt lat="42.9562" lon="0.85652">
        <ele>1504.12</ele>
        <time>2015-12-19T09:47:50Z</time>
      </trkpt>
      <trkpt lat="42.95615" lon="0.85639">
        <ele>1506.04</ele>
        <time>2015-12-19T09:48:20Z</time>
      </trkpt>
      <trkpt lat="42.95612" lon="0.85627">
        <ele>1507.48</ele>
        <time>2015-12-19T09:48:33Z</time>
      </trkpt>
      <trkpt lat="42.95613" lon="0.85618">
        <ele>1509.89</ele>
        <time>2015-12-19T09:48:46Z</time>
      </trkpt>
      <trkpt lat="42.9561" lon="0.85606">
        <ele>1510.85</ele>
        <time>2015-12-19T09:49:01Z</time>
      </trkpt>
      <trkpt lat="42.95614" lon="0.85593">
        <ele>1511.81</ele>
        <time>2015-12-19T09:49:14Z</time>
      </trkpt>
      <trkpt lat="42.95608" lon="0.8558">
        <ele>1513.25</ele>
        <time>2015-12-19T09:49:28Z</time>
      </trkpt>
      <trkpt lat="42.95605" lon="0.85567">
        <ele>1515.66</ele>
        <time>2015-12-19T09:49:43Z</time>
      </trkpt>
      <trkpt lat="42.95608" lon="0.85559">
        <ele>1519.02</ele>
        <time>2015-12-19T09:52:27Z</time>
      </trkpt>
      <trkpt lat="42.95598" lon="0.85555">
        <ele>1522.39</ele>
        <time>2015-12-19T09:52:48Z</time>
      </trkpt>
      <trkpt lat="42.95592" lon="0.8555">
        <ele>1524.31</ele>
        <time>2015-12-19T09:53:06Z</time>
      </trkpt>
      <trkpt lat="42.95594" lon="0.85536">
        <ele>1527.19</ele>
        <time>2015-12-19T09:53:26Z</time>
      </trkpt>
      <trkpt lat="42.95592" lon="0.85525">
        <ele>1530.08</ele>
        <time>2015-12-19T09:53:45Z</time>
      </trkpt>
      <trkpt lat="42.95582" lon="0.85522">
        <ele>1532.96</ele>
        <time>2015-12-19T09:54:03Z</time>
      </trkpt>
      <trkpt lat="42.95577" lon="0.85513">
        <ele>1535.84</ele>
        <time>2015-12-19T09:54:22Z</time>
      </trkpt>
      <trkpt lat="42.95582" lon="0.85505">
        <ele>1536.8</ele>
        <time>2015-12-19T09:54:38Z</time>
      </trkpt>
      <trkpt lat="42.95587" lon="0.85497">
        <ele>1539.21</ele>
        <time>2015-12-19T09:54:53Z</time>
      </trkpt>
      <trkpt lat="42.95589" lon="0.85488">
        <ele>1541.13</ele>
        <time>2015-12-19T09:55:07Z</time>
      </trkpt>
      <trkpt lat="42.95595" lon="0.85482">
        <ele>1543.53</ele>
        <time>2015-12-19T09:55:23Z</time>
      </trkpt>
      <trkpt lat="42.95596" lon="0.85471">
        <ele>1546.42</ele>
        <time>2015-12-19T09:55:40Z</time>
      </trkpt>
      <trkpt lat="42.95597" lon="0.85462">
        <ele>1549.3</ele>
        <time>2015-12-19T09:55:55Z</time>
      </trkpt>
      <trkpt lat="42.95602" lon="0.85452">
        <ele>1550.26</ele>
        <time>2015-12-19T09:56:09Z</time>
      </trkpt>
      <trkpt lat="42.95606" lon="0.85443">
        <ele>1552.19</ele>
        <time>2015-12-19T09:56:22Z</time>
      </trkpt>
      <trkpt lat="42.95599" lon="0.85432">
        <ele>1550.74</ele>
        <time>2015-12-19T09:56:35Z</time>
      </trkpt>
      <trkpt lat="42.95592" lon="0.8542">
        <ele>1547.38</ele>
        <time>2015-12-19T09:56:45Z</time>
      </trkpt>
      <trkpt lat="42.95586" lon="0.85407">
        <ele>1544.01</ele>
        <time>2015-12-19T09:57:03Z</time>
      </trkpt>
      <trkpt lat="42.95582" lon="0.85395">
        <ele>1541.13</ele>
        <time>2015-12-19T09:57:15Z</time>
      </trkpt>
      <trkpt lat="42.95578" lon="0.85383">
        <ele>1538.73</ele>
        <time>2015-12-19T09:57:25Z</time>
      </trkpt>
      <trkpt lat="42.95575" lon="0.85371">
        <ele>1535.84</ele>
        <time>2015-12-19T09:57:36Z</time>
      </trkpt>
      <trkpt lat="42.95573" lon="0.85358">
        <ele>1532.48</ele>
        <time>2015-12-19T09:57:48Z</time>
      </trkpt>
      <trkpt lat="42.95568" lon="0.85344">
        <ele>1530.08</ele>
        <time>2015-12-19T09:58:00Z</time>
      </trkpt>
      <trkpt lat="42.95569" lon="0.85331">
        <ele>1527.19</ele>
        <time>2015-12-19T09:58:10Z</time>
      </trkpt>
      <trkpt lat="42.95569" lon="0.85319">
        <ele>1525.27</ele>
        <time>2015-12-19T09:58:21Z</time>
      </trkpt>
      <trkpt lat="42.95569" lon="0.85304">
        <ele>1522.87</ele>
        <time>2015-12-19T09:58:32Z</time>
      </trkpt>
      <trkpt lat="42.95571" lon="0.85288">
        <ele>1520.94</ele>
        <time>2015-12-19T09:58:42Z</time>
      </trkpt>
      <trkpt lat="42.9557" lon="0.85274">
        <ele>1520.94</ele>
        <time>2015-12-19T09:58:51Z</time>
      </trkpt>
      <trkpt lat="42.95569" lon="0.85262">
        <ele>1519.02</ele>
        <time>2015-12-19T09:58:59Z</time>
      </trkpt>
      <trkpt lat="42.95566" lon="0.8525">
        <ele>1518.06</ele>
        <time>2015-12-19T09:59:07Z</time>
      </trkpt>
      <trkpt lat="42.95564" lon="0.85238">
        <ele>1516.14</ele>
        <time>2015-12-19T09:59:17Z</time>
      </trkpt>
      <trkpt lat="42.95567" lon="0.85224">
        <ele>1515.18</ele>
        <time>2015-12-19T09:59:28Z</time>
      </trkpt>
      <trkpt lat="42.95568" lon="0.8521">
        <ele>1513.73</ele>
        <time>2015-12-19T09:59:38Z</time>
      </trkpt>
      <trkpt lat="42.95572" lon="0.85198">
        <ele>1512.77</ele>
        <time>2015-12-19T09:59:48Z</time>
      </trkpt>
      <trkpt lat="42.95577" lon="0.85187">
        <ele>1511.81</ele>
        <time>2015-12-19T09:59:58Z</time>
      </trkpt>
      <trkpt lat="42.95579" lon="0.85176">
        <ele>1509.41</ele>
        <time>2015-12-19T10:00:12Z</time>
      </trkpt>
      <trkpt lat="42.95585" lon="0.8518">
        <ele>1506.52</ele>
        <time>2015-12-19T10:00:27Z</time>
      </trkpt>
      <trkpt lat="42.95588" lon="0.85169">
        <ele>1503.16</ele>
        <time>2015-12-19T10:00:41Z</time>
      </trkpt>
      <trkpt lat="42.9559" lon="0.85158">
        <ele>1499.31</ele>
        <time>2015-12-19T10:00:57Z</time>
      </trkpt>
      <trkpt lat="42.95598" lon="0.8515">
        <ele>1494.99</ele>
        <time>2015-12-19T10:01:27Z</time>
      </trkpt>
      <trkpt lat="42.95594" lon="0.85141">
        <ele>1494.99</ele>
        <time>2015-12-19T10:01:37Z</time>
      </trkpt>
      <trkpt lat="42.95588" lon="0.8513">
        <ele>1493.06</ele>
        <time>2015-12-19T10:01:47Z</time>
      </trkpt>
      <trkpt lat="42.95584" lon="0.85118">
        <ele>1492.58</ele>
        <time>2015-12-19T10:01:56Z</time>
      </trkpt>
      <trkpt lat="42.95589" lon="0.85108">
        <ele>1493.06</ele>
        <time>2015-12-19T10:02:08Z</time>
      </trkpt>
      <trkpt lat="42.95595" lon="0.85096">
        <ele>1491.14</ele>
        <time>2015-12-19T10:02:23Z</time>
      </trkpt>
      <trkpt lat="42.95599" lon="0.85085">
        <ele>1489.7</ele>
        <time>2015-12-19T10:02:31Z</time>
      </trkpt>
      <trkpt lat="42.95605" lon="0.85074">
        <ele>1488.74</ele>
        <time>2015-12-19T10:02:40Z</time>
      </trkpt>
      <trkpt lat="42.95609" lon="0.85063">
        <ele>1490.18</ele>
        <time>2015-12-19T10:02:50Z</time>
      </trkpt>
      <trkpt lat="42.95613" lon="0.85051">
        <ele>1489.7</ele>
        <time>2015-12-19T10:02:59Z</time>
      </trkpt>
      <trkpt lat="42.95614" lon="0.85037">
        <ele>1489.22</ele>
        <time>2015-12-19T10:03:08Z</time>
      </trkpt>
      <trkpt lat="42.95618" lon="0.85024">
        <ele>1488.26</ele>
        <time>2015-12-19T10:03:17Z</time>
      </trkpt>
      <trkpt lat="42.95622" lon="0.8501">
        <ele>1488.26</ele>
        <time>2015-12-19T10:03:26Z</time>
      </trkpt>
      <trkpt lat="42.95626" lon="0.84998">
        <ele>1488.26</ele>
        <time>2015-12-19T10:03:35Z</time>
      </trkpt>
      <trkpt lat="42.95627" lon="0.84985">
        <ele>1489.22</ele>
        <time>2015-12-19T10:03:44Z</time>
      </trkpt>
      <trkpt lat="42.95628" lon="0.84973">
        <ele>1489.7</ele>
        <time>2015-12-19T10:03:53Z</time>
      </trkpt>
      <trkpt lat="42.9563" lon="0.84959">
        <ele>1490.18</ele>
        <time>2015-12-19T10:04:02Z</time>
      </trkpt>
      <trkpt lat="42.95631" lon="0.84946">
        <ele>1491.14</ele>
        <time>2015-12-19T10:04:12Z</time>
      </trkpt>
      <trkpt lat="42.95633" lon="0.84932">
        <ele>1491.14</ele>
        <time>2015-12-19T10:04:23Z</time>
      </trkpt>
      <trkpt lat="42.95636" lon="0.8492">
        <ele>1489.22</ele>
        <time>2015-12-19T10:04:34Z</time>
      </trkpt>
      <trkpt lat="42.95637" lon="0.84906">
        <ele>1485.85</ele>
        <time>2015-12-19T10:04:46Z</time>
      </trkpt>
      <trkpt lat="42.95641" lon="0.84895">
        <ele>1481.53</ele>
        <time>2015-12-19T10:05:03Z</time>
      </trkpt>
      <trkpt lat="42.95649" lon="0.84885">
        <ele>1478.16</ele>
        <time>2015-12-19T10:05:18Z</time>
      </trkpt>
      <trkpt lat="42.95648" lon="0.84872">
        <ele>1475.76</ele>
        <time>2015-12-19T10:05:32Z</time>
      </trkpt>
      <trkpt lat="42.95651" lon="0.8486">
        <ele>1479.13</ele>
        <time>2015-12-19T10:05:50Z</time>
      </trkpt>
      <trkpt lat="42.95658" lon="0.84847">
        <ele>1483.45</ele>
        <time>2015-12-19T10:06:10Z</time>
      </trkpt>
      <trkpt lat="42.95661" lon="0.84832">
        <ele>1487.78</ele>
        <time>2015-12-19T10:06:36Z</time>
      </trkpt>
      <trkpt lat="42.95665" lon="0.84811">
        <ele>1492.1</ele>
        <time>2015-12-19T10:07:06Z</time>
      </trkpt>
      <trkpt lat="42.95667" lon="0.84793">
        <ele>1491.62</ele>
        <time>2015-12-19T10:07:28Z</time>
      </trkpt>
      <trkpt lat="42.95663" lon="0.84773">
        <ele>1492.1</ele>
        <time>2015-12-19T10:07:43Z</time>
      </trkpt>
      <trkpt lat="42.9566" lon="0.8475">
        <ele>1491.62</ele>
        <time>2015-12-19T10:08:01Z</time>
      </trkpt>
      <trkpt lat="42.95655" lon="0.84731">
        <ele>1491.62</ele>
        <time>2015-12-19T10:08:17Z</time>
      </trkpt>
      <trkpt lat="42.95653" lon="0.84703">
        <ele>1500.27</ele>
        <time>2015-12-19T10:09:05Z</time>
      </trkpt>
      <trkpt lat="42.95647" lon="0.84681">
        <ele>1502.68</ele>
        <time>2015-12-19T10:09:30Z</time>
      </trkpt>
      <trkpt lat="42.95644" lon="0.84658">
        <ele>1503.16</ele>
        <time>2015-12-19T10:09:49Z</time>
      </trkpt>
      <trkpt lat="42.95641" lon="0.84633">
        <ele>1504.6</ele>
        <time>2015-12-19T10:10:13Z</time>
      </trkpt>
      <trkpt lat="42.95647" lon="0.84609">
        <ele>1506.04</ele>
        <time>2015-12-19T10:10:34Z</time>
      </trkpt>
      <trkpt lat="42.95652" lon="0.84591">
        <ele>1508.93</ele>
        <time>2015-12-19T10:10:51Z</time>
      </trkpt>
      <trkpt lat="42.9565" lon="0.84566">
        <ele>1510.85</ele>
        <time>2015-12-19T10:11:17Z</time>
      </trkpt>
      <trkpt lat="42.95648" lon="0.84546">
        <ele>1513.73</ele>
        <time>2015-12-19T10:11:41Z</time>
      </trkpt>
      <trkpt lat="42.95649" lon="0.84526">
        <ele>1514.69</ele>
        <time>2015-12-19T10:11:58Z</time>
      </trkpt>
      <trkpt lat="42.95649" lon="0.84506">
        <ele>1514.69</ele>
        <time>2015-12-19T10:12:14Z</time>
      </trkpt>
      <trkpt lat="42.95648" lon="0.84487">
        <ele>1514.69</ele>
        <time>2015-12-19T10:12:27Z</time>
      </trkpt>
      <trkpt lat="42.9565" lon="0.84469">
        <ele>1515.18</ele>
        <time>2015-12-19T10:12:44Z</time>
      </trkpt>
      <trkpt lat="42.95646" lon="0.84452">
        <ele>1515.18</ele>
        <time>2015-12-19T10:12:56Z</time>
      </trkpt>
      <trkpt lat="42.95644" lon="0.84437">
        <ele>1515.66</ele>
        <time>2015-12-19T10:13:09Z</time>
      </trkpt>
      <trkpt lat="42.95649" lon="0.84418">
        <ele>1516.14</ele>
        <time>2015-12-19T10:13:26Z</time>
      </trkpt>
      <trkpt lat="42.95655" lon="0.844">
        <ele>1513.73</ele>
        <time>2015-12-19T10:13:46Z</time>
      </trkpt>
      <trkpt lat="42.95661" lon="0.84383">
        <ele>1511.33</ele>
        <time>2015-12-19T10:14:08Z</time>
      </trkpt>
      <trkpt lat="42.95666" lon="0.84371">
        <ele>1510.85</ele>
        <time>2015-12-19T10:14:20Z</time>
      </trkpt>
      <trkpt lat="42.95672" lon="0.8436">
        <ele>1509.89</ele>
        <time>2015-12-19T10:14:30Z</time>
      </trkpt>
      <trkpt lat="42.95677" lon="0.84349">
        <ele>1508.93</ele>
        <time>2015-12-19T10:14:40Z</time>
      </trkpt>
      <trkpt lat="42.95682" lon="0.84338">
        <ele>1508.45</ele>
        <time>2015-12-19T10:14:50Z</time>
      </trkpt>
      <trkpt lat="42.95688" lon="0.84326">
        <ele>1507.48</ele>
        <time>2015-12-19T10:15:02Z</time>
      </trkpt>
      <trkpt lat="42.95693" lon="0.84315">
        <ele>1507</ele>
        <time>2015-12-19T10:15:11Z</time>
      </trkpt>
      <trkpt lat="42.95696" lon="0.84302">
        <ele>1505.56</ele>
        <time>2015-12-19T10:15:19Z</time>
      </trkpt>
      <trkpt lat="42.95701" lon="0.84291">
        <ele>1505.56</ele>
        <time>2015-12-19T10:15:28Z</time>
      </trkpt>
      <trkpt lat="42.95704" lon="0.84278">
        <ele>1504.6</ele>
        <time>2015-12-19T10:15:36Z</time>
      </trkpt>
      <trkpt lat="42.95709" lon="0.8427">
        <ele>1503.16</ele>
        <time>2015-12-19T10:15:45Z</time>
      </trkpt>
      <trkpt lat="42.95718" lon="0.8427">
        <ele>1501.72</ele>
        <time>2015-12-19T10:15:54Z</time>
      </trkpt>
      <trkpt lat="42.95728" lon="0.84268">
        <ele>1502.2</ele>
        <time>2015-12-19T10:16:05Z</time>
      </trkpt>
      <trkpt lat="42.95738" lon="0.84271">
        <ele>1503.16</ele>
        <time>2015-12-19T10:16:14Z</time>
      </trkpt>
      <trkpt lat="42.95747" lon="0.84275">
        <ele>1504.6</ele>
        <time>2015-12-19T10:16:24Z</time>
      </trkpt>
      <trkpt lat="42.95756" lon="0.8428">
        <ele>1505.08</ele>
        <time>2015-12-19T10:16:34Z</time>
      </trkpt>
      <trkpt lat="42.95765" lon="0.84283">
        <ele>1506.52</ele>
        <time>2015-12-19T10:16:45Z</time>
      </trkpt>
      <trkpt lat="42.95775" lon="0.84288">
        <ele>1508.93</ele>
        <time>2015-12-19T10:16:56Z</time>
      </trkpt>
      <trkpt lat="42.95785" lon="0.84283">
        <ele>1511.33</ele>
        <time>2015-12-19T10:17:11Z</time>
      </trkpt>
      <trkpt lat="42.95793" lon="0.84273">
        <ele>1514.21</ele>
        <time>2015-12-19T10:17:27Z</time>
      </trkpt>
      <trkpt lat="42.95798" lon="0.84263">
        <ele>1517.58</ele>
        <time>2015-12-19T10:17:46Z</time>
      </trkpt>
      <trkpt lat="42.95804" lon="0.84252">
        <ele>1520.46</ele>
        <time>2015-12-19T10:18:05Z</time>
      </trkpt>
      <trkpt lat="42.95809" lon="0.8424">
        <ele>1521.9</ele>
        <time>2015-12-19T10:18:17Z</time>
      </trkpt>
      <trkpt lat="42.95811" lon="0.84227">
        <ele>1523.35</ele>
        <time>2015-12-19T10:18:30Z</time>
      </trkpt>
      <trkpt lat="42.95815" lon="0.84217">
        <ele>1524.79</ele>
        <time>2015-12-19T10:18:43Z</time>
      </trkpt>
      <trkpt lat="42.95811" lon="0.84203">
        <ele>1526.71</ele>
        <time>2015-12-19T10:18:57Z</time>
      </trkpt>
      <trkpt lat="42.95816" lon="0.84192">
        <ele>1530.08</ele>
        <time>2015-12-19T10:19:12Z</time>
      </trkpt>
      <trkpt lat="42.95821" lon="0.84181">
        <ele>1532.48</ele>
        <time>2015-12-19T10:19:29Z</time>
      </trkpt>
      <trkpt lat="42.95817" lon="0.84168">
        <ele>1534.88</ele>
        <time>2015-12-19T10:19:42Z</time>
      </trkpt>
      <trkpt lat="42.95816" lon="0.84158">
        <ele>1537.77</ele>
        <time>2015-12-19T10:19:57Z</time>
      </trkpt>
      <trkpt lat="42.95814" lon="0.84147">
        <ele>1539.21</ele>
        <time>2015-12-19T10:20:10Z</time>
      </trkpt>
      <trkpt lat="42.95817" lon="0.84138">
        <ele>1542.09</ele>
        <time>2015-12-19T10:20:25Z</time>
      </trkpt>
      <trkpt lat="42.95827" lon="0.84137">
        <ele>1543.53</ele>
        <time>2015-12-19T10:20:38Z</time>
      </trkpt>
      <trkpt lat="42.95834" lon="0.84133">
        <ele>1546.9</ele>
        <time>2015-12-19T10:20:56Z</time>
      </trkpt>
      <trkpt lat="42.95843" lon="0.84133">
        <ele>1550.26</ele>
        <time>2015-12-19T10:21:12Z</time>
      </trkpt>
      <trkpt lat="42.95853" lon="0.84134">
        <ele>1552.19</ele>
        <time>2015-12-19T10:21:27Z</time>
      </trkpt>
      <trkpt lat="42.95863" lon="0.84128">
        <ele>1555.07</ele>
        <time>2015-12-19T10:21:43Z</time>
      </trkpt>
      <trkpt lat="42.95871" lon="0.84124">
        <ele>1557.47</ele>
        <time>2015-12-19T10:21:57Z</time>
      </trkpt>
      <trkpt lat="42.95881" lon="0.84124">
        <ele>1561.8</ele>
        <time>2015-12-19T10:22:16Z</time>
      </trkpt>
      <trkpt lat="42.95889" lon="0.8412">
        <ele>1565.16</ele>
        <time>2015-12-19T10:22:31Z</time>
      </trkpt>
      <trkpt lat="42.95898" lon="0.84119">
        <ele>1567.57</ele>
        <time>2015-12-19T10:22:45Z</time>
      </trkpt>
      <trkpt lat="42.9591" lon="0.84116">
        <ele>1571.41</ele>
        <time>2015-12-19T10:23:00Z</time>
      </trkpt>
      <trkpt lat="42.95919" lon="0.84115">
        <ele>1571.89</ele>
        <time>2015-12-19T10:23:16Z</time>
      </trkpt>
      <trkpt lat="42.95929" lon="0.8412">
        <ele>1572.85</ele>
        <time>2015-12-19T10:23:30Z</time>
      </trkpt>
      <trkpt lat="42.95935" lon="0.84132">
        <ele>1574.3</ele>
        <time>2015-12-19T10:23:43Z</time>
      </trkpt>
      <trkpt lat="42.95936" lon="0.8415">
        <ele>1576.22</ele>
        <time>2015-12-19T10:24:04Z</time>
      </trkpt>
      <trkpt lat="42.95945" lon="0.84161">
        <ele>1577.66</ele>
        <time>2015-12-19T10:24:21Z</time>
      </trkpt>
      <trkpt lat="42.95959" lon="0.84166">
        <ele>1581.03</ele>
        <time>2015-12-19T10:24:46Z</time>
      </trkpt>
      <trkpt lat="42.95968" lon="0.84174">
        <ele>1581.51</ele>
        <time>2015-12-19T10:24:59Z</time>
      </trkpt>
      <trkpt lat="42.95976" lon="0.84187">
        <ele>1581.51</ele>
        <time>2015-12-19T10:25:13Z</time>
      </trkpt>
      <trkpt lat="42.95979" lon="0.84201">
        <ele>1581.03</ele>
        <time>2015-12-19T10:25:25Z</time>
      </trkpt>
      <trkpt lat="42.95988" lon="0.84208">
        <ele>1581.03</ele>
        <time>2015-12-19T10:25:37Z</time>
      </trkpt>
      <trkpt lat="42.95999" lon="0.84212">
        <ele>1579.1</ele>
        <time>2015-12-19T10:25:49Z</time>
      </trkpt>
      <trkpt lat="42.96007" lon="0.8422">
        <ele>1579.58</ele>
        <time>2015-12-19T10:26:00Z</time>
      </trkpt>
      <trkpt lat="42.96012" lon="0.84232">
        <ele>1580.06</ele>
        <time>2015-12-19T10:26:13Z</time>
      </trkpt>
      <trkpt lat="42.96014" lon="0.84244">
        <ele>1580.54</ele>
        <time>2015-12-19T10:26:24Z</time>
      </trkpt>
      <trkpt lat="42.96019" lon="0.84255">
        <ele>1581.51</ele>
        <time>2015-12-19T10:26:35Z</time>
      </trkpt>
      <trkpt lat="42.96025" lon="0.84265">
        <ele>1581.03</ele>
        <time>2015-12-19T10:26:46Z</time>
      </trkpt>
      <trkpt lat="42.96032" lon="0.84277">
        <ele>1582.47</ele>
        <time>2015-12-19T10:26:59Z</time>
      </trkpt>
      <trkpt lat="42.96034" lon="0.84292">
        <ele>1582.95</ele>
        <time>2015-12-19T10:27:10Z</time>
      </trkpt>
      <trkpt lat="42.96043" lon="0.84298">
        <ele>1584.87</ele>
        <time>2015-12-19T10:27:23Z</time>
      </trkpt>
      <trkpt lat="42.96052" lon="0.84306">
        <ele>1587.27</ele>
        <time>2015-12-19T10:27:37Z</time>
      </trkpt>
      <trkpt lat="42.96056" lon="0.84319">
        <ele>1589.68</ele>
        <time>2015-12-19T10:27:51Z</time>
      </trkpt>
      <trkpt lat="42.96067" lon="0.84319">
        <ele>1592.08</ele>
        <time>2015-12-19T10:28:07Z</time>
      </trkpt>
      <trkpt lat="42.96073" lon="0.84328">
        <ele>1594.96</ele>
        <time>2015-12-19T10:28:23Z</time>
      </trkpt>
      <trkpt lat="42.9608" lon="0.84336">
        <ele>1598.33</ele>
        <time>2015-12-19T10:28:42Z</time>
      </trkpt>
      <trkpt lat="42.96089" lon="0.8434">
        <ele>1602.66</ele>
        <time>2015-12-19T10:29:06Z</time>
      </trkpt>
      <trkpt lat="42.96098" lon="0.84342">
        <ele>1604.1</ele>
        <time>2015-12-19T10:29:55Z</time>
      </trkpt>
      <trkpt lat="42.96104" lon="0.84338">
        <ele>1604.1</ele>
        <time>2015-12-19T10:30:24Z</time>
      </trkpt>
      <trkpt lat="42.96097" lon="0.84342">
        <ele>1604.58</ele>
        <time>2015-12-19T10:30:58Z</time>
      </trkpt>
      <trkpt lat="42.96099" lon="0.84344">
        <ele>1604.58</ele>
        <time>2015-12-19T10:32:29Z</time>
      </trkpt>
      <trkpt lat="42.96098" lon="0.84339">
        <ele>1605.06</ele>
        <time>2015-12-19T10:33:20Z</time>
      </trkpt>
      <trkpt lat="42.96101" lon="0.84347">
        <ele>1605.06</ele>
        <time>2015-12-19T10:35:03Z</time>
      </trkpt>
      <trkpt lat="42.96088" lon="0.84343">
        <ele>1603.62</ele>
        <time>2015-12-19T10:35:22Z</time>
      </trkpt>
      <trkpt lat="42.9608" lon="0.8434">
        <ele>1599.29</ele>
        <time>2015-12-19T10:35:43Z</time>
      </trkpt>
      <trkpt lat="42.96077" lon="0.84329">
        <ele>1597.37</ele>
        <time>2015-12-19T10:36:00Z</time>
      </trkpt>
      <trkpt lat="42.9607" lon="0.84317">
        <ele>1594</ele>
        <time>2015-12-19T10:36:14Z</time>
      </trkpt>
      <trkpt lat="42.96062" lon="0.84309">
        <ele>1591.6</ele>
        <time>2015-12-19T10:36:23Z</time>
      </trkpt>
      <trkpt lat="42.96058" lon="0.84297">
        <ele>1588.72</ele>
        <time>2015-12-19T10:36:41Z</time>
      </trkpt>
      <trkpt lat="42.96045" lon="0.8429">
        <ele>1585.83</ele>
        <time>2015-12-19T10:36:53Z</time>
      </trkpt>
      <trkpt lat="42.96034" lon="0.84285">
        <ele>1584.39</ele>
        <time>2015-12-19T10:37:05Z</time>
      </trkpt>
      <trkpt lat="42.96029" lon="0.8429">
        <ele>1583.91</ele>
        <time>2015-12-19T10:37:19Z</time>
      </trkpt>
      <trkpt lat="42.96028" lon="0.84277">
        <ele>1582.95</ele>
        <time>2015-12-19T10:37:29Z</time>
      </trkpt>
      <trkpt lat="42.96024" lon="0.84262">
        <ele>1582.47</ele>
        <time>2015-12-19T10:37:41Z</time>
      </trkpt>
      <trkpt lat="42.96017" lon="0.84248">
        <ele>1582.95</ele>
        <time>2015-12-19T10:37:55Z</time>
      </trkpt>
      <trkpt lat="42.96014" lon="0.84234">
        <ele>1581.99</ele>
        <time>2015-12-19T10:38:06Z</time>
      </trkpt>
      <trkpt lat="42.96008" lon="0.84221">
        <ele>1581.03</ele>
        <time>2015-12-19T10:38:16Z</time>
      </trkpt>
      <trkpt lat="42.96001" lon="0.8421">
        <ele>1581.03</ele>
        <time>2015-12-19T10:38:26Z</time>
      </trkpt>
      <trkpt lat="42.95994" lon="0.84197">
        <ele>1581.03</ele>
        <time>2015-12-19T10:38:37Z</time>
      </trkpt>
      <trkpt lat="42.95985" lon="0.84186">
        <ele>1581.99</ele>
        <time>2015-12-19T10:38:48Z</time>
      </trkpt>
      <trkpt lat="42.95976" lon="0.84178">
        <ele>1582.95</ele>
        <time>2015-12-19T10:38:58Z</time>
      </trkpt>
      <trkpt lat="42.95969" lon="0.84168">
        <ele>1582.47</ele>
        <time>2015-12-19T10:39:10Z</time>
      </trkpt>
      <trkpt lat="42.95964" lon="0.84155">
        <ele>1581.99</ele>
        <time>2015-12-19T10:39:23Z</time>
      </trkpt>
      <trkpt lat="42.95957" lon="0.84145">
        <ele>1580.06</ele>
        <time>2015-12-19T10:39:34Z</time>
      </trkpt>
      <trkpt lat="42.95946" lon="0.84135">
        <ele>1579.1</ele>
        <time>2015-12-19T10:39:46Z</time>
      </trkpt>
      <trkpt lat="42.95937" lon="0.84125">
        <ele>1577.66</ele>
        <time>2015-12-19T10:39:57Z</time>
      </trkpt>
      <trkpt lat="42.95927" lon="0.84119">
        <ele>1575.26</ele>
        <time>2015-12-19T10:40:09Z</time>
      </trkpt>
      <trkpt lat="42.95916" lon="0.84115">
        <ele>1574.78</ele>
        <time>2015-12-19T10:40:21Z</time>
      </trkpt>
      <trkpt lat="42.95909" lon="0.84109">
        <ele>1573.33</ele>
        <time>2015-12-19T10:40:31Z</time>
      </trkpt>
      <trkpt lat="42.95897" lon="0.84105">
        <ele>1573.33</ele>
        <time>2015-12-19T10:40:59Z</time>
      </trkpt>
      <trkpt lat="42.95889" lon="0.84107">
        <ele>1570.93</ele>
        <time>2015-12-19T10:41:08Z</time>
      </trkpt>
      <trkpt lat="42.95881" lon="0.84107">
        <ele>1568.05</ele>
        <time>2015-12-19T10:41:18Z</time>
      </trkpt>
      <trkpt lat="42.95876" lon="0.84113">
        <ele>1564.2</ele>
        <time>2015-12-19T10:41:44Z</time>
      </trkpt>
      <trkpt lat="42.95866" lon="0.84112">
        <ele>1561.32</ele>
        <time>2015-12-19T10:41:52Z</time>
      </trkpt>
      <trkpt lat="42.95859" lon="0.84119">
        <ele>1558.43</ele>
        <time>2015-12-19T10:42:02Z</time>
      </trkpt>
      <trkpt lat="42.95851" lon="0.84125">
        <ele>1555.55</ele>
        <time>2015-12-19T10:42:12Z</time>
      </trkpt>
      <trkpt lat="42.95842" lon="0.84123">
        <ele>1553.15</ele>
        <time>2015-12-19T10:42:20Z</time>
      </trkpt>
      <trkpt lat="42.95832" lon="0.84124">
        <ele>1549.78</ele>
        <time>2015-12-19T10:42:28Z</time>
      </trkpt>
      <trkpt lat="42.95821" lon="0.84131">
        <ele>1546.9</ele>
        <time>2015-12-19T10:42:37Z</time>
      </trkpt>
      <trkpt lat="42.95812" lon="0.84137">
        <ele>1544.98</ele>
        <time>2015-12-19T10:42:46Z</time>
      </trkpt>
      <trkpt lat="42.95803" lon="0.84142">
        <ele>1544.01</ele>
        <time>2015-12-19T10:42:53Z</time>
      </trkpt>
      <trkpt lat="42.95797" lon="0.8415">
        <ele>1544.01</ele>
        <time>2015-12-19T10:43:00Z</time>
      </trkpt>
      <trkpt lat="42.95791" lon="0.8416">
        <ele>1544.5</ele>
        <time>2015-12-19T10:43:09Z</time>
      </trkpt>
      <trkpt lat="42.95787" lon="0.84176">
        <ele>1544.01</ele>
        <time>2015-12-19T10:43:19Z</time>
      </trkpt>
      <trkpt lat="42.95782" lon="0.84187">
        <ele>1542.57</ele>
        <time>2015-12-19T10:43:28Z</time>
      </trkpt>
      <trkpt lat="42.95775" lon="0.84194">
        <ele>1539.69</ele>
        <time>2015-12-19T10:43:39Z</time>
      </trkpt>
      <trkpt lat="42.95767" lon="0.84198">
        <ele>1535.36</ele>
        <time>2015-12-19T10:43:52Z</time>
      </trkpt>
      <trkpt lat="42.9576" lon="0.84206">
        <ele>1530.56</ele>
        <time>2015-12-19T10:44:03Z</time>
      </trkpt>
      <trkpt lat="42.95751" lon="0.84212">
        <ele>1525.75</ele>
        <time>2015-12-19T10:44:17Z</time>
      </trkpt>
      <trkpt lat="42.95743" lon="0.84226">
        <ele>1520.46</ele>
        <time>2015-12-19T10:44:34Z</time>
      </trkpt>
      <trkpt lat="42.95735" lon="0.84235">
        <ele>1515.66</ele>
        <time>2015-12-19T10:44:47Z</time>
      </trkpt>
      <trkpt lat="42.95728" lon="0.84249">
        <ele>1510.85</ele>
        <time>2015-12-19T10:45:00Z</time>
      </trkpt>
      <trkpt lat="42.95717" lon="0.84255">
        <ele>1506.52</ele>
        <time>2015-12-19T10:45:16Z</time>
      </trkpt>
      <trkpt lat="42.9571" lon="0.84264">
        <ele>1505.56</ele>
        <time>2015-12-19T10:45:23Z</time>
      </trkpt>
      <trkpt lat="42.95706" lon="0.84274">
        <ele>1506.52</ele>
        <time>2015-12-19T10:45:31Z</time>
      </trkpt>
      <trkpt lat="42.95702" lon="0.84284">
        <ele>1508.45</ele>
        <time>2015-12-19T10:45:41Z</time>
      </trkpt>
      <trkpt lat="42.95699" lon="0.84296">
        <ele>1508.93</ele>
        <time>2015-12-19T10:45:52Z</time>
      </trkpt>
      <trkpt lat="42.95696" lon="0.84308">
        <ele>1508.93</ele>
        <time>2015-12-19T10:46:01Z</time>
      </trkpt>
      <trkpt lat="42.95691" lon="0.84321">
        <ele>1509.89</ele>
        <time>2015-12-19T10:46:11Z</time>
      </trkpt>
      <trkpt lat="42.95685" lon="0.84331">
        <ele>1510.85</ele>
        <time>2015-12-19T10:46:21Z</time>
      </trkpt>
      <trkpt lat="42.95679" lon="0.84343">
        <ele>1511.81</ele>
        <time>2015-12-19T10:46:31Z</time>
      </trkpt>
      <trkpt lat="42.95672" lon="0.84355">
        <ele>1512.77</ele>
        <time>2015-12-19T10:46:41Z</time>
      </trkpt>
      <trkpt lat="42.95667" lon="0.84365">
        <ele>1513.25</ele>
        <time>2015-12-19T10:46:51Z</time>
      </trkpt>
      <trkpt lat="42.95664" lon="0.84381">
        <ele>1514.69</ele>
        <time>2015-12-19T10:47:03Z</time>
      </trkpt>
      <trkpt lat="42.95659" lon="0.84395">
        <ele>1516.62</ele>
        <time>2015-12-19T10:47:22Z</time>
      </trkpt>
      <trkpt lat="42.95653" lon="0.84412">
        <ele>1519.5</ele>
        <time>2015-12-19T10:47:42Z</time>
      </trkpt>
      <trkpt lat="42.95648" lon="0.84432">
        <ele>1518.06</ele>
        <time>2015-12-19T10:48:02Z</time>
      </trkpt>
      <trkpt lat="42.95649" lon="0.84452">
        <ele>1517.1</ele>
        <time>2015-12-19T10:48:17Z</time>
      </trkpt>
      <trkpt lat="42.95653" lon="0.84478">
        <ele>1517.1</ele>
        <time>2015-12-19T10:48:36Z</time>
      </trkpt>
      <trkpt lat="42.95652" lon="0.84504">
        <ele>1516.14</ele>
        <time>2015-12-19T10:48:56Z</time>
      </trkpt>
      <trkpt lat="42.95652" lon="0.84531">
        <ele>1516.62</ele>
        <time>2015-12-19T10:49:16Z</time>
      </trkpt>
      <trkpt lat="42.9565" lon="0.8456">
        <ele>1514.21</ele>
        <time>2015-12-19T10:49:38Z</time>
      </trkpt>
      <trkpt lat="42.95655" lon="0.84583">
        <ele>1510.37</ele>
        <time>2015-12-19T10:50:01Z</time>
      </trkpt>
      <trkpt lat="42.95647" lon="0.84613">
        <ele>1507</ele>
        <time>2015-12-19T10:50:23Z</time>
      </trkpt>
      <trkpt lat="42.95645" lon="0.84645">
        <ele>1505.56</ele>
        <time>2015-12-19T10:50:48Z</time>
      </trkpt>
      <trkpt lat="42.9565" lon="0.84676">
        <ele>1503.16</ele>
        <time>2015-12-19T10:51:12Z</time>
      </trkpt>
      <trkpt lat="42.95654" lon="0.84701">
        <ele>1500.76</ele>
        <time>2015-12-19T10:51:35Z</time>
      </trkpt>
      <trkpt lat="42.95651" lon="0.84742">
        <ele>1491.14</ele>
        <time>2015-12-19T10:52:46Z</time>
      </trkpt>
      <trkpt lat="42.95659" lon="0.84755">
        <ele>1492.1</ele>
        <time>2015-12-19T10:53:07Z</time>
      </trkpt>
      <trkpt lat="42.95665" lon="0.84783">
        <ele>1491.62</ele>
        <time>2015-12-19T10:53:29Z</time>
      </trkpt>
      <trkpt lat="42.95665" lon="0.84804">
        <ele>1492.1</ele>
        <time>2015-12-19T10:53:46Z</time>
      </trkpt>
      <trkpt lat="42.95662" lon="0.84829">
        <ele>1487.3</ele>
        <time>2015-12-19T10:54:18Z</time>
      </trkpt>
      <trkpt lat="42.95659" lon="0.84845">
        <ele>1482.97</ele>
        <time>2015-12-19T10:54:32Z</time>
      </trkpt>
      <trkpt lat="42.95652" lon="0.84855">
        <ele>1479.61</ele>
        <time>2015-12-19T10:54:55Z</time>
      </trkpt>
      <trkpt lat="42.9565" lon="0.8487">
        <ele>1476.24</ele>
        <time>2015-12-19T10:55:07Z</time>
      </trkpt>
      <trkpt lat="42.9565" lon="0.84875">
        <ele>1474.8</ele>
        <time>2015-12-19T10:56:35Z</time>
      </trkpt>
      <trkpt lat="42.95657" lon="0.84883">
        <ele>1474.8</ele>
        <time>2015-12-19T10:56:45Z</time>
      </trkpt>
      <trkpt lat="42.95666" lon="0.84889">
        <ele>1474.32</ele>
        <time>2015-12-19T10:56:55Z</time>
      </trkpt>
      <trkpt lat="42.95672" lon="0.84898">
        <ele>1474.8</ele>
        <time>2015-12-19T10:57:06Z</time>
      </trkpt>
      <trkpt lat="42.95675" lon="0.84911">
        <ele>1474.8</ele>
        <time>2015-12-19T10:57:16Z</time>
      </trkpt>
      <trkpt lat="42.95678" lon="0.84921">
        <ele>1473.84</ele>
        <time>2015-12-19T10:57:25Z</time>
      </trkpt>
      <trkpt lat="42.95684" lon="0.84934">
        <ele>1471.92</ele>
        <time>2015-12-19T10:57:34Z</time>
      </trkpt>
      <trkpt lat="42.95686" lon="0.84947">
        <ele>1470.47</ele>
        <time>2015-12-19T10:57:43Z</time>
      </trkpt>
      <trkpt lat="42.95688" lon="0.84961">
        <ele>1469.99</ele>
        <time>2015-12-19T10:57:52Z</time>
      </trkpt>
      <trkpt lat="42.95688" lon="0.84975">
        <ele>1468.07</ele>
        <time>2015-12-19T10:58:00Z</time>
      </trkpt>
      <trkpt lat="42.9569" lon="0.84989">
        <ele>1467.11</ele>
        <time>2015-12-19T10:58:10Z</time>
      </trkpt>
      <trkpt lat="42.95689" lon="0.85001">
        <ele>1466.15</ele>
        <time>2015-12-19T10:58:18Z</time>
      </trkpt>
      <trkpt lat="42.95688" lon="0.85014">
        <ele>1466.15</ele>
        <time>2015-12-19T10:58:27Z</time>
      </trkpt>
      <trkpt lat="42.95686" lon="0.85028">
        <ele>1464.23</ele>
        <time>2015-12-19T10:58:36Z</time>
      </trkpt>
      <trkpt lat="42.95683" lon="0.8504">
        <ele>1463.26</ele>
        <time>2015-12-19T10:58:44Z</time>
      </trkpt>
      <trkpt lat="42.9568" lon="0.85053">
        <ele>1463.26</ele>
        <time>2015-12-19T10:58:53Z</time>
      </trkpt>
      <trkpt lat="42.95676" lon="0.85065">
        <ele>1462.3</ele>
        <time>2015-12-19T10:59:02Z</time>
      </trkpt>
      <trkpt lat="42.95674" lon="0.85078">
        <ele>1461.34</ele>
        <time>2015-12-19T10:59:13Z</time>
      </trkpt>
      <trkpt lat="42.95671" lon="0.85088">
        <ele>1459.9</ele>
        <time>2015-12-19T10:59:24Z</time>
      </trkpt>
      <trkpt lat="42.9567" lon="0.85101">
        <ele>1459.42</ele>
        <time>2015-12-19T10:59:32Z</time>
      </trkpt>
      <trkpt lat="42.9567" lon="0.85114">
        <ele>1457.5</ele>
        <time>2015-12-19T10:59:41Z</time>
      </trkpt>
      <trkpt lat="42.9567" lon="0.85125">
        <ele>1457.98</ele>
        <time>2015-12-19T10:59:51Z</time>
      </trkpt>
      <trkpt lat="42.95668" lon="0.85138">
        <ele>1456.53</ele>
        <time>2015-12-19T11:00:02Z</time>
      </trkpt>
      <trkpt lat="42.9567" lon="0.85151">
        <ele>1454.61</ele>
        <time>2015-12-19T11:00:13Z</time>
      </trkpt>
      <trkpt lat="42.95672" lon="0.85166">
        <ele>1454.13</ele>
        <time>2015-12-19T11:00:23Z</time>
      </trkpt>
      <trkpt lat="42.95674" lon="0.8518">
        <ele>1453.17</ele>
        <time>2015-12-19T11:00:32Z</time>
      </trkpt>
      <trkpt lat="42.9568" lon="0.85191">
        <ele>1451.73</ele>
        <time>2015-12-19T11:00:41Z</time>
      </trkpt>
      <trkpt lat="42.95683" lon="0.85202">
        <ele>1451.25</ele>
        <time>2015-12-19T11:00:50Z</time>
      </trkpt>
      <trkpt lat="42.95685" lon="0.85216">
        <ele>1450.29</ele>
        <time>2015-12-19T11:00:59Z</time>
      </trkpt>
      <trkpt lat="42.95688" lon="0.85228">
        <ele>1450.29</ele>
        <time>2015-12-19T11:01:08Z</time>
      </trkpt>
      <trkpt lat="42.95695" lon="0.85235">
        <ele>1450.77</ele>
        <time>2015-12-19T11:01:17Z</time>
      </trkpt>
      <trkpt lat="42.957" lon="0.85247">
        <ele>1449.81</ele>
        <time>2015-12-19T11:01:25Z</time>
      </trkpt>
      <trkpt lat="42.95706" lon="0.85258">
        <ele>1449.81</ele>
        <time>2015-12-19T11:01:34Z</time>
      </trkpt>
      <trkpt lat="42.95713" lon="0.85266">
        <ele>1449.32</ele>
        <time>2015-12-19T11:01:43Z</time>
      </trkpt>
      <trkpt lat="42.95721" lon="0.85274">
        <ele>1450.29</ele>
        <time>2015-12-19T11:01:54Z</time>
      </trkpt>
      <trkpt lat="42.95725" lon="0.85283">
        <ele>1451.25</ele>
        <time>2015-12-19T11:02:15Z</time>
      </trkpt>
      <trkpt lat="42.95729" lon="0.85295">
        <ele>1451.25</ele>
        <time>2015-12-19T11:02:24Z</time>
      </trkpt>
      <trkpt lat="42.95736" lon="0.85302">
        <ele>1450.29</ele>
        <time>2015-12-19T11:02:35Z</time>
      </trkpt>
      <trkpt lat="42.95742" lon="0.85311">
        <ele>1449.32</ele>
        <time>2015-12-19T11:02:53Z</time>
      </trkpt>
      <trkpt lat="42.95751" lon="0.85319">
        <ele>1448.84</ele>
        <time>2015-12-19T11:03:02Z</time>
      </trkpt>
      <trkpt lat="42.95759" lon="0.85326">
        <ele>1449.81</ele>
        <time>2015-12-19T11:03:11Z</time>
      </trkpt>
      <trkpt lat="42.95766" lon="0.85334">
        <ele>1450.29</ele>
        <time>2015-12-19T11:03:20Z</time>
      </trkpt>
      <trkpt lat="42.95773" lon="0.85342">
        <ele>1451.25</ele>
        <time>2015-12-19T11:03:30Z</time>
      </trkpt>
      <trkpt lat="42.95779" lon="0.85353">
        <ele>1453.17</ele>
        <time>2015-12-19T11:03:41Z</time>
      </trkpt>
      <trkpt lat="42.95787" lon="0.85362">
        <ele>1454.13</ele>
        <time>2015-12-19T11:03:53Z</time>
      </trkpt>
      <trkpt lat="42.95795" lon="0.85369">
        <ele>1455.09</ele>
        <time>2015-12-19T11:04:03Z</time>
      </trkpt>
      <trkpt lat="42.95803" lon="0.85376">
        <ele>1455.09</ele>
        <time>2015-12-19T11:04:17Z</time>
      </trkpt>
      <trkpt lat="42.9581" lon="0.85384">
        <ele>1455.57</ele>
        <time>2015-12-19T11:04:27Z</time>
      </trkpt>
      <trkpt lat="42.95817" lon="0.85393">
        <ele>1455.57</ele>
        <time>2015-12-19T11:04:37Z</time>
      </trkpt>
      <trkpt lat="42.95821" lon="0.85405">
        <ele>1456.05</ele>
        <time>2015-12-19T11:04:47Z</time>
      </trkpt>
      <trkpt lat="42.95825" lon="0.85417">
        <ele>1456.05</ele>
        <time>2015-12-19T11:04:56Z</time>
      </trkpt>
      <trkpt lat="42.95829" lon="0.85428">
        <ele>1456.05</ele>
        <time>2015-12-19T11:05:05Z</time>
      </trkpt>
      <trkpt lat="42.95834" lon="0.8544">
        <ele>1457.02</ele>
        <time>2015-12-19T11:05:15Z</time>
      </trkpt>
      <trkpt lat="42.95842" lon="0.85448">
        <ele>1457.02</ele>
        <time>2015-12-19T11:05:24Z</time>
      </trkpt>
      <trkpt lat="42.95849" lon="0.85458">
        <ele>1457.02</ele>
        <time>2015-12-19T11:05:33Z</time>
      </trkpt>
      <trkpt lat="42.95856" lon="0.85469">
        <ele>1457.98</ele>
        <time>2015-12-19T11:05:42Z</time>
      </trkpt>
      <trkpt lat="42.95862" lon="0.85478">
        <ele>1459.9</ele>
        <time>2015-12-19T11:05:53Z</time>
      </trkpt>
      <trkpt lat="42.95866" lon="0.85488">
        <ele>1460.38</ele>
        <time>2015-12-19T11:06:04Z</time>
      </trkpt>
      <trkpt lat="42.9587" lon="0.855">
        <ele>1460.86</ele>
        <time>2015-12-19T11:06:14Z</time>
      </trkpt>
      <trkpt lat="42.95875" lon="0.8551">
        <ele>1458.94</ele>
        <time>2015-12-19T11:06:30Z</time>
      </trkpt>
      <trkpt lat="42.95877" lon="0.85519">
        <ele>1458.94</ele>
        <time>2015-12-19T11:06:58Z</time>
      </trkpt>
      <trkpt lat="42.95881" lon="0.85531">
        <ele>1457.98</ele>
        <time>2015-12-19T11:07:07Z</time>
      </trkpt>
      <trkpt lat="42.95886" lon="0.85541">
        <ele>1457.02</ele>
        <time>2015-12-19T11:07:19Z</time>
      </trkpt>
      <trkpt lat="42.9589" lon="0.85552">
        <ele>1455.57</ele>
        <time>2015-12-19T11:07:28Z</time>
      </trkpt>
      <trkpt lat="42.95891" lon="0.85563">
        <ele>1454.61</ele>
        <time>2015-12-19T11:07:37Z</time>
      </trkpt>
      <trkpt lat="42.95893" lon="0.85573">
        <ele>1454.13</ele>
        <time>2015-12-19T11:08:01Z</time>
      </trkpt>
      <trkpt lat="42.95893" lon="0.85589">
        <ele>1452.21</ele>
        <time>2015-12-19T11:08:13Z</time>
      </trkpt>
      <trkpt lat="42.95901" lon="0.856">
        <ele>1449.81</ele>
        <time>2015-12-19T11:08:23Z</time>
      </trkpt>
      <trkpt lat="42.95904" lon="0.85611">
        <ele>1447.4</ele>
        <time>2015-12-19T11:08:33Z</time>
      </trkpt>
      <trkpt lat="42.95903" lon="0.85623">
        <ele>1445</ele>
        <time>2015-12-19T11:08:42Z</time>
      </trkpt>
      <trkpt lat="42.95908" lon="0.85634">
        <ele>1445.48</ele>
        <time>2015-12-19T11:08:50Z</time>
      </trkpt>
      <trkpt lat="42.95915" lon="0.85643">
        <ele>1444.52</ele>
        <time>2015-12-19T11:08:59Z</time>
      </trkpt>
      <trkpt lat="42.95924" lon="0.85643">
        <ele>1442.11</ele>
        <time>2015-12-19T11:09:11Z</time>
      </trkpt>
      <trkpt lat="42.95933" lon="0.85644">
        <ele>1439.23</ele>
        <time>2015-12-19T11:09:23Z</time>
      </trkpt>
      <trkpt lat="42.95942" lon="0.85642">
        <ele>1436.35</ele>
        <time>2015-12-19T11:09:35Z</time>
      </trkpt>
      <trkpt lat="42.95952" lon="0.85643">
        <ele>1432.98</ele>
        <time>2015-12-19T11:09:48Z</time>
      </trkpt>
      <trkpt lat="42.95962" lon="0.8565">
        <ele>1430.58</ele>
        <time>2015-12-19T11:09:57Z</time>
      </trkpt>
      <trkpt lat="42.95971" lon="0.85652">
        <ele>1430.1</ele>
        <time>2015-12-19T11:10:06Z</time>
      </trkpt>
      <trkpt lat="42.9598" lon="0.85655">
        <ele>1427.7</ele>
        <time>2015-12-19T11:10:16Z</time>
      </trkpt>
      <trkpt lat="42.9599" lon="0.85652">
        <ele>1426.25</ele>
        <time>2015-12-19T11:10:27Z</time>
      </trkpt>
      <trkpt lat="42.96" lon="0.85653">
        <ele>1424.33</ele>
        <time>2015-12-19T11:10:37Z</time>
      </trkpt>
      <trkpt lat="42.96009" lon="0.8565">
        <ele>1421.93</ele>
        <time>2015-12-19T11:10:48Z</time>
      </trkpt>
      <trkpt lat="42.96018" lon="0.8565">
        <ele>1419.52</ele>
        <time>2015-12-19T11:10:59Z</time>
      </trkpt>
      <trkpt lat="42.96028" lon="0.85651">
        <ele>1417.6</ele>
        <time>2015-12-19T11:11:13Z</time>
      </trkpt>
      <trkpt lat="42.96036" lon="0.85656">
        <ele>1415.68</ele>
        <time>2015-12-19T11:11:23Z</time>
      </trkpt>
      <trkpt lat="42.96045" lon="0.85652">
        <ele>1412.79</ele>
        <time>2015-12-19T11:11:35Z</time>
      </trkpt>
      <trkpt lat="42.96054" lon="0.85656">
        <ele>1410.87</ele>
        <time>2015-12-19T11:11:44Z</time>
      </trkpt>
      <trkpt lat="42.96062" lon="0.85661">
        <ele>1408.95</ele>
        <time>2015-12-19T11:11:53Z</time>
      </trkpt>
      <trkpt lat="42.96071" lon="0.85662">
        <ele>1407.03</ele>
        <time>2015-12-19T11:12:03Z</time>
      </trkpt>
      <trkpt lat="42.96081" lon="0.85667">
        <ele>1405.1</ele>
        <time>2015-12-19T11:12:13Z</time>
      </trkpt>
      <trkpt lat="42.96089" lon="0.85673">
        <ele>1403.18</ele>
        <time>2015-12-19T11:12:22Z</time>
      </trkpt>
      <trkpt lat="42.96098" lon="0.85678">
        <ele>1401.26</ele>
        <time>2015-12-19T11:12:32Z</time>
      </trkpt>
      <trkpt lat="42.96104" lon="0.85682">
        <ele>1399.82</ele>
        <time>2015-12-19T11:12:43Z</time>
      </trkpt>
      <trkpt lat="42.96108" lon="0.85681">
        <ele>1397.89</ele>
        <time>2015-12-19T11:12:54Z</time>
      </trkpt>
      <trkpt lat="42.9611" lon="0.85669">
        <ele>1396.93</ele>
        <time>2015-12-19T11:13:07Z</time>
      </trkpt>
      <trkpt lat="42.96117" lon="0.85668">
        <ele>1397.41</ele>
        <time>2015-12-19T11:13:20Z</time>
      </trkpt>
      <trkpt lat="42.96126" lon="0.85671">
        <ele>1398.37</ele>
        <time>2015-12-19T11:13:31Z</time>
      </trkpt>
      <trkpt lat="42.96137" lon="0.85674">
        <ele>1398.86</ele>
        <time>2015-12-19T11:13:41Z</time>
      </trkpt>
      <trkpt lat="42.96149" lon="0.85679">
        <ele>1398.37</ele>
        <time>2015-12-19T11:13:57Z</time>
      </trkpt>
      <trkpt lat="42.96156" lon="0.85672">
        <ele>1399.82</ele>
        <time>2015-12-19T11:14:10Z</time>
      </trkpt>
      <trkpt lat="42.9616" lon="0.85682">
        <ele>1400.3</ele>
        <time>2015-12-19T11:14:35Z</time>
      </trkpt>
      <trkpt lat="42.96166" lon="0.85686">
        <ele>1400.78</ele>
        <time>2015-12-19T11:14:58Z</time>
      </trkpt>
      <trkpt lat="42.96168" lon="0.85689">
        <ele>1401.26</ele>
        <time>2015-12-19T11:15:28Z</time>
      </trkpt>
      <trkpt lat="42.96167" lon="0.85676">
        <ele>1402.22</ele>
        <time>2015-12-19T11:15:42Z</time>
      </trkpt>
      <trkpt lat="42.96164" lon="0.85675">
        <ele>1402.7</ele>
        <time>2015-12-19T11:21:58Z</time>
      </trkpt>
      <trkpt lat="42.96163" lon="0.85676">
        <ele>1402.22</ele>
        <time>2015-12-19T11:22:01Z</time>
      </trkpt>
      <trkpt lat="42.96164" lon="0.85674">
        <ele>1417.6</ele>
        <time>2015-12-19T12:35:07Z</time>
      </trkpt>
      <trkpt lat="42.96157" lon="0.85809">
        <ele>1377.71</ele>
        <time>2015-12-19T12:38:43Z</time>
      </trkpt>
      <trkpt lat="42.9616" lon="0.85841">
        <ele>1375.3</ele>
        <time>2015-12-19T12:39:11Z</time>
      </trkpt>
      <trkpt lat="42.96177" lon="0.85879">
        <ele>1373.86</ele>
        <time>2015-12-19T12:39:58Z</time>
      </trkpt>
      <trkpt lat="42.96184" lon="0.85902">
        <ele>1372.42</ele>
        <time>2015-12-19T12:40:15Z</time>
      </trkpt>
      <trkpt lat="42.96189" lon="0.85913">
        <ele>1371.94</ele>
        <time>2015-12-19T12:40:26Z</time>
      </trkpt>
      <trkpt lat="42.96193" lon="0.85928">
        <ele>1371.94</ele>
        <time>2015-12-19T12:40:38Z</time>
      </trkpt>
      <trkpt lat="42.96201" lon="0.85939">
        <ele>1371.46</ele>
        <time>2015-12-19T12:40:49Z</time>
      </trkpt>
      <trkpt lat="42.9621" lon="0.85957">
        <ele>1370.5</ele>
        <time>2015-12-19T12:41:04Z</time>
      </trkpt>
      <trkpt lat="42.96216" lon="0.85972">
        <ele>1370.02</ele>
        <time>2015-12-19T12:41:18Z</time>
      </trkpt>
      <trkpt lat="42.96223" lon="0.85988">
        <ele>1369.54</ele>
        <time>2015-12-19T12:41:31Z</time>
      </trkpt>
      <trkpt lat="42.96233" lon="0.85997">
        <ele>1368.09</ele>
        <time>2015-12-19T12:41:42Z</time>
      </trkpt>
      <trkpt lat="42.96247" lon="0.86006">
        <ele>1367.13</ele>
        <time>2015-12-19T12:41:58Z</time>
      </trkpt>
      <trkpt lat="42.96251" lon="0.86021">
        <ele>1365.21</ele>
        <time>2015-12-19T12:42:11Z</time>
      </trkpt>
      <trkpt lat="42.96257" lon="0.86032">
        <ele>1364.25</ele>
        <time>2015-12-19T12:42:26Z</time>
      </trkpt>
      <trkpt lat="42.9627" lon="0.86042">
        <ele>1363.29</ele>
        <time>2015-12-19T12:42:39Z</time>
      </trkpt>
      <trkpt lat="42.96279" lon="0.86055">
        <ele>1361.84</ele>
        <time>2015-12-19T12:42:52Z</time>
      </trkpt>
      <trkpt lat="42.96284" lon="0.86072">
        <ele>1360.4</ele>
        <time>2015-12-19T12:43:04Z</time>
      </trkpt>
      <trkpt lat="42.96291" lon="0.86082">
        <ele>1360.88</ele>
        <time>2015-12-19T12:43:16Z</time>
      </trkpt>
      <trkpt lat="42.96298" lon="0.86096">
        <ele>1359.92</ele>
        <time>2015-12-19T12:43:27Z</time>
      </trkpt>
      <trkpt lat="42.96301" lon="0.86107">
        <ele>1358.96</ele>
        <time>2015-12-19T12:43:37Z</time>
      </trkpt>
      <trkpt lat="42.96297" lon="0.8612">
        <ele>1357.52</ele>
        <time>2015-12-19T12:43:48Z</time>
      </trkpt>
      <trkpt lat="42.96293" lon="0.86137">
        <ele>1354.63</ele>
        <time>2015-12-19T12:44:06Z</time>
      </trkpt>
      <trkpt lat="42.96287" lon="0.86153">
        <ele>1352.23</ele>
        <time>2015-12-19T12:44:20Z</time>
      </trkpt>
      <trkpt lat="42.96284" lon="0.86168">
        <ele>1349.35</ele>
        <time>2015-12-19T12:44:29Z</time>
      </trkpt>
      <trkpt lat="42.96283" lon="0.86184">
        <ele>1346.94</ele>
        <time>2015-12-19T12:44:39Z</time>
      </trkpt>
      <trkpt lat="42.96286" lon="0.86197">
        <ele>1346.46</ele>
        <time>2015-12-19T12:44:48Z</time>
      </trkpt>
      <trkpt lat="42.9629" lon="0.8621">
        <ele>1345.02</ele>
        <time>2015-12-19T12:44:58Z</time>
      </trkpt>
      <trkpt lat="42.96296" lon="0.86221">
        <ele>1345.02</ele>
        <time>2015-12-19T12:45:08Z</time>
      </trkpt>
      <trkpt lat="42.963" lon="0.86233">
        <ele>1344.06</ele>
        <time>2015-12-19T12:45:17Z</time>
      </trkpt>
      <trkpt lat="42.96302" lon="0.86247">
        <ele>1343.58</ele>
        <time>2015-12-19T12:45:26Z</time>
      </trkpt>
      <trkpt lat="42.96305" lon="0.86259">
        <ele>1343.1</ele>
        <time>2015-12-19T12:45:35Z</time>
      </trkpt>
      <trkpt lat="42.96305" lon="0.86275">
        <ele>1342.14</ele>
        <time>2015-12-19T12:45:46Z</time>
      </trkpt>
      <trkpt lat="42.96314" lon="0.86285">
        <ele>1342.14</ele>
        <time>2015-12-19T12:46:02Z</time>
      </trkpt>
      <trkpt lat="42.96336" lon="0.86305">
        <ele>1345.02</ele>
        <time>2015-12-19T12:46:28Z</time>
      </trkpt>
      <trkpt lat="42.96329" lon="0.86328">
        <ele>1344.06</ele>
        <time>2015-12-19T12:46:42Z</time>
      </trkpt>
      <trkpt lat="42.96328" lon="0.86339">
        <ele>1344.06</ele>
        <time>2015-12-19T12:46:56Z</time>
      </trkpt>
      <trkpt lat="42.96334" lon="0.86352">
        <ele>1344.06</ele>
        <time>2015-12-19T12:47:10Z</time>
      </trkpt>
      <trkpt lat="42.96336" lon="0.86367">
        <ele>1344.06</ele>
        <time>2015-12-19T12:47:24Z</time>
      </trkpt>
      <trkpt lat="42.96344" lon="0.8638">
        <ele>1343.58</ele>
        <time>2015-12-19T12:47:36Z</time>
      </trkpt>
      <trkpt lat="42.96371" lon="0.86404">
        <ele>1342.14</ele>
        <time>2015-12-19T12:48:00Z</time>
      </trkpt>
      <trkpt lat="42.96382" lon="0.86424">
        <ele>1340.7</ele>
        <time>2015-12-19T12:48:20Z</time>
      </trkpt>
      <trkpt lat="42.9639" lon="0.86441">
        <ele>1339.73</ele>
        <time>2015-12-19T12:48:40Z</time>
      </trkpt>
      <trkpt lat="42.96408" lon="0.86465">
        <ele>1338.29</ele>
        <time>2015-12-19T12:48:59Z</time>
      </trkpt>
      <trkpt lat="42.96417" lon="0.86493">
        <ele>1337.81</ele>
        <time>2015-12-19T12:49:20Z</time>
      </trkpt>
      <trkpt lat="42.96436" lon="0.86527">
        <ele>1336.37</ele>
        <time>2015-12-19T12:49:49Z</time>
      </trkpt>
      <trkpt lat="42.96444" lon="0.8655">
        <ele>1334.45</ele>
        <time>2015-12-19T12:50:11Z</time>
      </trkpt>
      <trkpt lat="42.96466" lon="0.8659">
        <ele>1332.52</ele>
        <time>2015-12-19T12:50:34Z</time>
      </trkpt>
      <trkpt lat="42.96474" lon="0.86628">
        <ele>1331.56</ele>
        <time>2015-12-19T12:51:02Z</time>
      </trkpt>
      <trkpt lat="42.96482" lon="0.86648">
        <ele>1330.6</ele>
        <time>2015-12-19T12:51:23Z</time>
      </trkpt>
      <trkpt lat="42.96497" lon="0.8668">
        <ele>1327.24</ele>
        <time>2015-12-19T12:51:54Z</time>
      </trkpt>
      <trkpt lat="42.9653" lon="0.86724">
        <ele>1322.91</ele>
        <time>2015-12-19T12:52:30Z</time>
      </trkpt>
      <trkpt lat="42.96553" lon="0.8676">
        <ele>1317.62</ele>
        <time>2015-12-19T12:53:08Z</time>
      </trkpt>
      <trkpt lat="42.96559" lon="0.86788">
        <ele>1314.74</ele>
        <time>2015-12-19T12:53:33Z</time>
      </trkpt>
      <trkpt lat="42.96569" lon="0.86819">
        <ele>1310.9</ele>
        <time>2015-12-19T12:53:53Z</time>
      </trkpt>
      <trkpt lat="42.96571" lon="0.86842">
        <ele>1309.45</ele>
        <time>2015-12-19T12:54:11Z</time>
      </trkpt>
      <trkpt lat="42.96579" lon="0.86872">
        <ele>1307.53</ele>
        <time>2015-12-19T12:54:32Z</time>
      </trkpt>
      <trkpt lat="42.96584" lon="0.86904">
        <ele>1303.2</ele>
        <time>2015-12-19T12:54:58Z</time>
      </trkpt>
      <trkpt lat="42.96587" lon="0.86923">
        <ele>1301.28</ele>
        <time>2015-12-19T12:55:09Z</time>
      </trkpt>
      <trkpt lat="42.96589" lon="0.86945">
        <ele>1298.88</ele>
        <time>2015-12-19T12:55:28Z</time>
      </trkpt>
      <trkpt lat="42.96587" lon="0.86964">
        <ele>1297.44</ele>
        <time>2015-12-19T12:55:42Z</time>
      </trkpt>
      <trkpt lat="42.96583" lon="0.86977">
        <ele>1296.48</ele>
        <time>2015-12-19T12:55:57Z</time>
      </trkpt>
      <trkpt lat="42.96576" lon="0.86983">
        <ele>1294.55</ele>
        <time>2015-12-19T12:56:16Z</time>
      </trkpt>
      <trkpt lat="42.96569" lon="0.87003">
        <ele>1291.67</ele>
        <time>2015-12-19T12:56:30Z</time>
      </trkpt>
      <trkpt lat="42.9657" lon="0.87017">
        <ele>1290.71</ele>
        <time>2015-12-19T12:56:42Z</time>
      </trkpt>
      <trkpt lat="42.96574" lon="0.87036">
        <ele>1288.78</ele>
        <time>2015-12-19T12:56:57Z</time>
      </trkpt>
      <trkpt lat="42.96573" lon="0.87052">
        <ele>1287.34</ele>
        <time>2015-12-19T12:57:08Z</time>
      </trkpt>
      <trkpt lat="42.96572" lon="0.87077">
        <ele>1284.94</ele>
        <time>2015-12-19T12:57:28Z</time>
      </trkpt>
      <trkpt lat="42.96582" lon="0.871">
        <ele>1283.98</ele>
        <time>2015-12-19T12:57:41Z</time>
      </trkpt>
      <trkpt lat="42.96586" lon="0.8713">
        <ele>1283.5</ele>
        <time>2015-12-19T12:57:59Z</time>
      </trkpt>
      <trkpt lat="42.96594" lon="0.87148">
        <ele>1281.57</ele>
        <time>2015-12-19T12:58:10Z</time>
      </trkpt>
      <trkpt lat="42.96599" lon="0.87166">
        <ele>1280.13</ele>
        <time>2015-12-19T12:58:23Z</time>
      </trkpt>
      <trkpt lat="42.96589" lon="0.87207">
        <ele>1278.21</ele>
        <time>2015-12-19T12:58:38Z</time>
      </trkpt>
      <trkpt lat="42.9658" lon="0.87228">
        <ele>1276.29</ele>
        <time>2015-12-19T12:59:00Z</time>
      </trkpt>
      <trkpt lat="42.96592" lon="0.87251">
        <ele>1271.96</ele>
        <time>2015-12-19T12:59:31Z</time>
      </trkpt>
      <trkpt lat="42.96599" lon="0.87295">
        <ele>1269.08</ele>
        <time>2015-12-19T12:59:57Z</time>
      </trkpt>
      <trkpt lat="42.96601" lon="0.87336">
        <ele>1265.71</ele>
        <time>2015-12-19T13:00:28Z</time>
      </trkpt>
      <trkpt lat="42.96599" lon="0.87359">
        <ele>1265.71</ele>
        <time>2015-12-19T13:00:46Z</time>
      </trkpt>
      <trkpt lat="42.96589" lon="0.87393">
        <ele>1262.83</ele>
        <time>2015-12-19T13:01:16Z</time>
      </trkpt>
      <trkpt lat="42.96579" lon="0.87427">
        <ele>1258.98</ele>
        <time>2015-12-19T13:01:40Z</time>
      </trkpt>
      <trkpt lat="42.96569" lon="0.8746">
        <ele>1252.74</ele>
        <time>2015-12-19T13:02:08Z</time>
      </trkpt>
      <trkpt lat="42.96568" lon="0.87493">
        <ele>1248.89</ele>
        <time>2015-12-19T13:02:32Z</time>
      </trkpt>
      <trkpt lat="42.96571" lon="0.87511">
        <ele>1247.45</ele>
        <time>2015-12-19T13:02:46Z</time>
      </trkpt>
      <trkpt lat="42.96596" lon="0.87548">
        <ele>1240.72</ele>
        <time>2015-12-19T13:03:24Z</time>
      </trkpt>
      <trkpt lat="42.96578" lon="0.87559">
        <ele>1238.32</ele>
        <time>2015-12-19T13:03:47Z</time>
      </trkpt>
      <trkpt lat="42.96557" lon="0.87553">
        <ele>1235.91</ele>
        <time>2015-12-19T13:04:09Z</time>
      </trkpt>
      <trkpt lat="42.96551" lon="0.8753">
        <ele>1235.91</ele>
        <time>2015-12-19T13:04:24Z</time>
      </trkpt>
      <trkpt lat="42.9654" lon="0.87502">
        <ele>1233.03</ele>
        <time>2015-12-19T13:04:43Z</time>
      </trkpt>
      <trkpt lat="42.96528" lon="0.8751">
        <ele>1232.07</ele>
        <time>2015-12-19T13:05:02Z</time>
      </trkpt>
      <trkpt lat="42.96525" lon="0.87529">
        <ele>1232.07</ele>
        <time>2015-12-19T13:05:19Z</time>
      </trkpt>
      <trkpt lat="42.96519" lon="0.87557">
        <ele>1229.66</ele>
        <time>2015-12-19T13:05:44Z</time>
      </trkpt>
      <trkpt lat="42.96521" lon="0.87579">
        <ele>1227.26</ele>
        <time>2015-12-19T13:05:57Z</time>
      </trkpt>
      <trkpt lat="42.96524" lon="0.87599">
        <ele>1225.34</ele>
        <time>2015-12-19T13:06:12Z</time>
      </trkpt>
      <trkpt lat="42.96516" lon="0.87631">
        <ele>1221.01</ele>
        <time>2015-12-19T13:06:39Z</time>
      </trkpt>
      <trkpt lat="42.96515" lon="0.87657">
        <ele>1218.13</ele>
        <time>2015-12-19T13:07:00Z</time>
      </trkpt>
      <trkpt lat="42.96504" lon="0.87667">
        <ele>1216.21</ele>
        <time>2015-12-19T13:07:13Z</time>
      </trkpt>
      <trkpt lat="42.96492" lon="0.8769">
        <ele>1215.24</ele>
        <time>2015-12-19T13:07:24Z</time>
      </trkpt>
      <trkpt lat="42.96483" lon="0.87707">
        <ele>1211.4</ele>
        <time>2015-12-19T13:07:41Z</time>
      </trkpt>
      <trkpt lat="42.96469" lon="0.87733">
        <ele>1207.55</ele>
        <time>2015-12-19T13:08:02Z</time>
      </trkpt>
      <trkpt lat="42.96465" lon="0.87748">
        <ele>1206.59</ele>
        <time>2015-12-19T13:08:12Z</time>
      </trkpt>
      <trkpt lat="42.96465" lon="0.87764">
        <ele>1204.67</ele>
        <time>2015-12-19T13:08:24Z</time>
      </trkpt>
      <trkpt lat="42.96461" lon="0.87782">
        <ele>1201.3</ele>
        <time>2015-12-19T13:08:41Z</time>
      </trkpt>
      <trkpt lat="42.96464" lon="0.87798">
        <ele>1199.38</ele>
        <time>2015-12-19T13:08:56Z</time>
      </trkpt>
      <trkpt lat="42.96459" lon="0.87821">
        <ele>1196.02</ele>
        <time>2015-12-19T13:09:18Z</time>
      </trkpt>
      <trkpt lat="42.96451" lon="0.87846">
        <ele>1191.69</ele>
        <time>2015-12-19T13:09:54Z</time>
      </trkpt>
      <trkpt lat="42.96458" lon="0.87861">
        <ele>1189.29</ele>
        <time>2015-12-19T13:10:04Z</time>
      </trkpt>
      <trkpt lat="42.96477" lon="0.87883">
        <ele>1188.33</ele>
        <time>2015-12-19T13:10:32Z</time>
      </trkpt>
    </trkseg>
  </trk>
</gpx>